PWSweather.com
Personal Weather Stations
Station Observations
TMASSANO
Herbertsville, Brick, NJ 08724

HerbertsvilleBrick, NJ 08724

Lat: 40.098, Lon: -74.096

Elevation: 16

Station Type: WS 2800

Latest ConditionsUpdated 10:41:42 AM EST Tuesday, Jan 16, 2018
Currently Today's Max Today's Min Today's Average
Temperature 36.0°F2.2°C 36.1°F2.3°C 27.5°F-2.5°C 30.5°F-0.8°C
Dew Point 32.2°F0.1°C 32.6°F0.3°C 23.6°F-4.7°C 27.0°F-2.8°C
Winds 2.7 mph S4.3 kmh S 7.8 mph S12.6 kmh S - 2.3 mph 3.7 kmh
Wind Gusts 6.8 mph10.9 kmh 8.9 mph14.3 kmh - -
Humidity 86% 92% 83% 86%
Pressure 30.46 in1031.5 mb 30.49 in1032.5 mb 30.44 in1030.8 mb -
Hour Temp Dew Point Humidity Winds Wind Gusts Pressure Precip Precip Rate Daily Precip Total
10:41 AM 36.0°F2.2°C 32.2°F0.1°C 86% 3.2 mph SE5.1 kmh SE 6.8 mph10.9 kmh 30.46 in1031.5 mb 0.00 in0.0 mm 0.00 in0.0 mm 0.00 in0.0 mm
10:40 AM 36.1°F2.3°C 32.3°F0.2°C 86% 1.7 mph SSE2.7 kmh SSE 6.8 mph10.9 kmh 30.46 in1031.5 mb 0.00 in0.0 mm 0.00 in0.0 mm 0.00 in0.0 mm
10:39 AM 36.1°F2.3°C 32.3°F0.2°C 86% 1.7 mph ESE2.7 kmh ESE 6.8 mph10.9 kmh 30.46 in1031.5 mb 0.00 in0.0 mm 0.00 in0.0 mm 0.00 in0.0 mm
10:38 AM 36.1°F2.3°C 32.3°F0.2°C 86% 3.7 mph SSE6.0 kmh SSE 6.8 mph10.9 kmh 30.46 in1031.5 mb 0.00 in0.0 mm 0.00 in0.0 mm 0.00 in0.0 mm
10:37 AM 36.1°F2.3°C 32.3°F0.2°C 86% 3.7 mph ESE6.0 kmh ESE 6.8 mph10.9 kmh 30.47 in1031.8 mb 0.00 in0.0 mm 0.00 in0.0 mm 0.00 in0.0 mm
10:36 AM 36.1°F2.3°C 32.3°F0.2°C 86% 3.2 mph ESE5.1 kmh ESE 6.8 mph10.9 kmh 30.47 in1031.8 mb 0.00 in0.0 mm 0.00 in0.0 mm 0.00 in0.0 mm
10:35 AM 36.1°F2.3°C 32.3°F0.2°C 86% 2.2 mph SE3.5 kmh SE 6.8 mph10.9 kmh 30.47 in1031.8 mb 0.00 in0.0 mm 0.00 in0.0 mm 0.00 in0.0 mm
10:34 AM 36.1°F2.3°C 32.3°F0.2°C 86% 2.7 mph ESE4.3 kmh ESE 6.8 mph10.9 kmh 30.47 in1031.8 mb 0.00 in0.0 mm 0.00 in0.0 mm 0.00 in0.0 mm
10:33 AM 36.0°F2.2°C 32.2°F0.1°C 86% 4.2 mph SSE6.8 kmh SSE 6.8 mph10.9 kmh 30.47 in1031.8 mb 0.00 in0.0 mm 0.00 in0.0 mm 0.00 in0.0 mm
10:32 AM 36.0°F2.2°C 32.2°F0.1°C 86% 6.8 mph ESE10.9 kmh ESE 6.8 mph10.9 kmh 30.47 in1031.8 mb 0.00 in0.0 mm 0.00 in0.0 mm 0.00 in0.0 mm
10:31 AM 35.8°F2.1°C 32.0°F0.0°C 86% 2.7 mph SE4.3 kmh SE 4.2 mph6.8 kmh 30.47 in1031.8 mb 0.00 in0.0 mm 0.00 in0.0 mm 0.00 in0.0 mm
10:30 AM 36.0°F2.2°C 32.2°F0.1°C 86% 2.7 mph SE4.3 kmh SE 4.2 mph6.8 kmh 30.47 in1031.8 mb 0.00 in0.0 mm 0.00 in0.0 mm 0.00 in0.0 mm
10:29 AM 36.1°F2.3°C 32.3°F0.2°C 86% 3.2 mph ESE5.1 kmh ESE 4.2 mph6.8 kmh 30.47 in1031.8 mb 0.00 in0.0 mm 0.00 in0.0 mm 0.00 in0.0 mm
10:28 AM 36.1°F2.3°C 32.3°F0.2°C 86% 2.7 mph SE4.3 kmh SE 4.2 mph6.8 kmh 30.47 in1031.8 mb 0.00 in0.0 mm 0.00 in0.0 mm 0.00 in0.0 mm
10:27 AM 36.1°F2.3°C 32.3°F0.2°C 86% 3.7 mph SE6.0 kmh SE 4.2 mph6.8 kmh 30.47 in1031.8 mb 0.00 in0.0 mm 0.00 in0.0 mm 0.00 in0.0 mm
10:26 AM 36.1°F2.3°C 32.6°F0.3°C 87% 3.2 mph SE5.1 kmh SE 5.8 mph9.3 kmh 30.47 in1031.8 mb 0.00 in0.0 mm 0.00 in0.0 mm 0.00 in0.0 mm
10:25 AM 36.0°F2.2°C 32.5°F0.3°C 87% Calm Calm 5.8 mph9.3 kmh 30.47 in1031.8 mb 0.00 in0.0 mm 0.00 in0.0 mm 0.00 in0.0 mm
10:24 AM 35.8°F2.1°C 32.3°F0.2°C 87% 2.2 mph SE3.5 kmh SE 5.8 mph9.3 kmh 30.47 in1031.8 mb 0.00 in0.0 mm 0.00 in0.0 mm 0.00 in0.0 mm
10:23 AM 36.0°F2.2°C 32.5°F0.3°C 87% 4.2 mph S6.8 kmh S 5.8 mph9.3 kmh 30.47 in1031.8 mb 0.00 in0.0 mm 0.00 in0.0 mm 0.00 in0.0 mm
10:22 AM 35.8°F2.1°C 32.3°F0.2°C 87% 1.7 mph S2.7 kmh S 5.8 mph9.3 kmh 30.47 in1031.8 mb 0.00 in0.0 mm 0.00 in0.0 mm 0.00 in0.0 mm
10:21 AM 35.4°F1.9°C 32.2°F0.1°C 88% 2.7 mph SSE4.3 kmh SSE 5.8 mph9.3 kmh 30.47 in1031.8 mb 0.00 in0.0 mm 0.00 in0.0 mm 0.00 in0.0 mm
10:20 AM 35.2°F1.8°C 32.0°F0.0°C 88% 2.7 mph SE4.3 kmh SE 5.8 mph9.3 kmh 30.47 in1031.8 mb 0.00 in0.0 mm 0.00 in0.0 mm 0.00 in0.0 mm
10:19 AM 35.2°F1.8°C 32.0°F0.0°C 88% 2.7 mph ESE4.3 kmh ESE 5.8 mph9.3 kmh 30.47 in1031.8 mb 0.00 in0.0 mm 0.00 in0.0 mm 0.00 in0.0 mm
10:18 AM 35.2°F1.8°C 32.0°F0.0°C 88% 4.2 mph SE6.8 kmh SE 6.3 mph10.1 kmh 30.47 in1031.8 mb 0.00 in0.0 mm 0.00 in0.0 mm 0.00 in0.0 mm
10:17 AM 35.1°F1.7°C 31.9°F-0.1°C 88% 5.8 mph SSW9.3 kmh SSW 6.3 mph10.1 kmh 30.47 in1031.8 mb 0.00 in0.0 mm 0.00 in0.0 mm 0.00 in0.0 mm
10:16 AM 35.1°F1.7°C 31.6°F-0.2°C 87% 4.2 mph SE6.8 kmh SE 6.3 mph10.1 kmh 30.47 in1031.8 mb 0.00 in0.0 mm 0.00 in0.0 mm 0.00 in0.0 mm
10:15 AM 35.2°F1.8°C 31.7°F-0.2°C 87% 4.2 mph SE6.8 kmh SE 6.3 mph10.1 kmh 30.47 in1031.8 mb 0.00 in0.0 mm 0.00 in0.0 mm 0.00 in0.0 mm
10:14 AM 35.4°F1.9°C 31.9°F-0.1°C 87% 2.2 mph ESE3.5 kmh ESE 6.3 mph10.1 kmh 30.47 in1031.8 mb 0.00 in0.0 mm 0.00 in0.0 mm 0.00 in0.0 mm
10:13 AM 35.4°F1.9°C 31.9°F-0.1°C 87% 2.2 mph SE3.5 kmh SE 6.3 mph10.1 kmh 30.48 in1032.2 mb 0.00 in0.0 mm 0.00 in0.0 mm 0.00 in0.0 mm
10:12 AM 35.4°F1.9°C 31.9°F-0.1°C 87% 3.7 mph S6.0 kmh S 6.3 mph10.1 kmh 30.48 in1032.2 mb 0.00 in0.0 mm 0.00 in0.0 mm 0.00 in0.0 mm
10:11 AM 35.4°F1.9°C 31.9°F-0.1°C 87% 3.2 mph ESE5.1 kmh ESE 6.3 mph10.1 kmh 30.48 in1032.2 mb 0.00 in0.0 mm 0.00 in0.0 mm 0.00 in0.0 mm
10:10 AM 35.6°F2.0°C 32.1°F0.1°C 87% 5.8 mph SSE9.3 kmh SSE 6.3 mph10.1 kmh 30.48 in1032.2 mb 0.00 in0.0 mm 0.00 in0.0 mm 0.00 in0.0 mm
10:09 AM 35.6°F2.0°C 32.1°F0.1°C 87% 6.3 mph E10.1 kmh E 6.3 mph10.1 kmh 30.48 in1032.2 mb 0.00 in0.0 mm 0.00 in0.0 mm 0.00 in0.0 mm
10:08 AM 35.6°F2.0°C 32.1°F0.1°C 87% 2.7 mph ESE4.3 kmh ESE 4.7 mph7.6 kmh 30.48 in1032.2 mb 0.00 in0.0 mm 0.00 in0.0 mm 0.00 in0.0 mm
10:07 AM 35.8°F2.1°C 32.3°F0.2°C 87% 1.7 mph SE2.7 kmh SE 4.7 mph7.6 kmh 30.48 in1032.2 mb 0.00 in0.0 mm 0.00 in0.0 mm 0.00 in0.0 mm
10:06 AM 35.8°F2.1°C 32.3°F0.2°C 87% 2.7 mph SSW4.3 kmh SSW 4.7 mph7.6 kmh 30.48 in1032.2 mb 0.00 in0.0 mm 0.00 in0.0 mm 0.00 in0.0 mm
10:05 AM 35.8°F2.1°C 32.3°F0.2°C 87% 3.2 mph SE5.1 kmh SE 4.7 mph7.6 kmh 30.48 in1032.2 mb 0.00 in0.0 mm 0.00 in0.0 mm 0.00 in0.0 mm
10:04 AM 35.6°F2.0°C 32.1°F0.1°C 87% 2.7 mph ESE4.3 kmh ESE 4.7 mph7.6 kmh 30.48 in1032.2 mb 0.00 in0.0 mm 0.00 in0.0 mm 0.00 in0.0 mm
10:03 AM 35.2°F1.8°C 31.7°F-0.2°C 87% 2.7 mph ESE4.3 kmh ESE 4.7 mph7.6 kmh 30.48 in1032.2 mb 0.00 in0.0 mm 0.00 in0.0 mm 0.00 in0.0 mm
10:02 AM 35.4°F1.9°C 31.9°F-0.1°C 87% 2.7 mph SE4.3 kmh SE 5.8 mph9.3 kmh 30.48 in1032.2 mb 0.00 in0.0 mm 0.00 in0.0 mm 0.00 in0.0 mm
10:01 AM 35.4°F1.9°C 31.9°F-0.1°C 87% 4.2 mph ESE6.8 kmh ESE 5.8 mph9.3 kmh 30.48 in1032.2 mb 0.00 in0.0 mm 0.00 in0.0 mm 0.00 in0.0 mm
10:00 AM 35.2°F1.8°C 31.7°F-0.2°C 87% 3.7 mph E6.0 kmh E 5.8 mph9.3 kmh 30.48 in1032.2 mb 0.00 in0.0 mm 0.00 in0.0 mm 0.00 in0.0 mm
09:59 AM 35.2°F1.8°C 31.7°F-0.2°C 87% 2.7 mph ESE4.3 kmh ESE 5.8 mph9.3 kmh 30.48 in1032.2 mb 0.00 in0.0 mm 0.00 in0.0 mm 0.00 in0.0 mm
09:58 AM 35.2°F1.8°C 31.7°F-0.2°C 87% 4.7 mph E7.6 kmh E 5.8 mph9.3 kmh 30.48 in1032.2 mb 0.00 in0.0 mm 0.00 in0.0 mm 0.00 in0.0 mm
09:57 AM 35.2°F1.8°C 31.7°F-0.2°C 87% 2.7 mph SE4.3 kmh SE 5.8 mph9.3 kmh 30.48 in1032.2 mb 0.00 in0.0 mm 0.00 in0.0 mm 0.00 in0.0 mm
09:56 AM 35.2°F1.8°C 31.7°F-0.2°C 87% 3.2 mph ESE5.1 kmh ESE 5.8 mph9.3 kmh 30.48 in1032.2 mb 0.00 in0.0 mm 0.00 in0.0 mm 0.00 in0.0 mm
09:55 AM 35.1°F1.7°C 31.6°F-0.2°C 87% 3.7 mph S6.0 kmh S 5.8 mph9.3 kmh 30.48 in1032.2 mb 0.00 in0.0 mm 0.00 in0.0 mm 0.00 in0.0 mm
09:54 AM 35.1°F1.7°C 31.6°F-0.2°C 87% 2.7 mph SSE4.3 kmh SSE 5.8 mph9.3 kmh 30.48 in1032.2 mb 0.00 in0.0 mm 0.00 in0.0 mm 0.00 in0.0 mm
09:53 AM 35.2°F1.8°C 31.7°F-0.2°C 87% 3.7 mph SE6.0 kmh SE 5.8 mph9.3 kmh 30.48 in1032.2 mb 0.00 in0.0 mm 0.00 in0.0 mm 0.00 in0.0 mm
09:52 AM 35.4°F1.9°C 31.9°F-0.1°C 87% 5.8 mph ESE9.3 kmh ESE 5.8 mph9.3 kmh 30.48 in1032.2 mb 0.00 in0.0 mm 0.00 in0.0 mm 0.00 in0.0 mm
09:51 AM 35.4°F1.9°C 31.9°F-0.1°C 87% 3.7 mph SE6.0 kmh SE 5.3 mph8.5 kmh 30.48 in1032.2 mb 0.00 in0.0 mm 0.00 in0.0 mm 0.00 in0.0 mm
09:50 AM 35.6°F2.0°C 32.1°F0.1°C 87% 3.7 mph SSE6.0 kmh SSE 5.3 mph8.5 kmh 30.48 in1032.2 mb 0.00 in0.0 mm 0.00 in0.0 mm 0.00 in0.0 mm
09:49 AM 35.6°F2.0°C 32.1°F0.1°C 87% 1.1 mph S1.8 kmh S 5.3 mph8.5 kmh 30.48 in1032.2 mb 0.00 in0.0 mm 0.00 in0.0 mm 0.00 in0.0 mm
09:48 AM 35.2°F1.8°C 31.7°F-0.2°C 87% 2.2 mph SSE3.5 kmh SSE 5.3 mph8.5 kmh 30.48 in1032.2 mb 0.00 in0.0 mm 0.00 in0.0 mm 0.00 in0.0 mm
09:47 AM 35.2°F1.8°C 31.7°F-0.2°C 87% 2.2 mph ESE3.5 kmh ESE 5.3 mph8.5 kmh 30.48 in1032.2 mb 0.00 in0.0 mm 0.00 in0.0 mm 0.00 in0.0 mm
09:46 AM 35.1°F1.7°C 31.6°F-0.2°C 87% 2.2 mph ESE3.5 kmh ESE 5.3 mph8.5 kmh 30.48 in1032.2 mb 0.00 in0.0 mm 0.00 in0.0 mm 0.00 in0.0 mm
09:45 AM 35.1°F1.7°C 31.6°F-0.2°C 87% 3.2 mph SSE5.1 kmh SSE 5.8 mph9.3 kmh 30.48 in1032.2 mb 0.00 in0.0 mm 0.00 in0.0 mm 0.00 in0.0 mm
09:44 AM 34.9°F1.6°C 31.4°F-0.3°C 87% 2.7 mph SSE4.3 kmh SSE 5.8 mph9.3 kmh 30.48 in1032.2 mb 0.00 in0.0 mm 0.00 in0.0 mm 0.00 in0.0 mm
09:43 AM 34.9°F1.6°C 31.4°F-0.3°C 87% 5.3 mph S8.5 kmh S 5.8 mph9.3 kmh 30.48 in1032.2 mb 0.00 in0.0 mm 0.00 in0.0 mm 0.00 in0.0 mm
09:42 AM 34.9°F1.6°C 31.4°F-0.3°C 87% 4.7 mph SE7.6 kmh SE 5.8 mph9.3 kmh 30.48 in1032.2 mb 0.00 in0.0 mm 0.00 in0.0 mm 0.00 in0.0 mm
09:41 AM 34.9°F1.6°C 31.4°F-0.3°C 87% 4.7 mph SE7.6 kmh SE 5.8 mph9.3 kmh 30.48 in1032.2 mb 0.00 in0.0 mm 0.00 in0.0 mm 0.00 in0.0 mm
09:40 AM 34.9°F1.6°C 31.4°F-0.3°C 87% 4.2 mph SSE6.8 kmh SSE 5.8 mph9.3 kmh 30.48 in1032.2 mb 0.00 in0.0 mm 0.00 in0.0 mm 0.00 in0.0 mm
09:39 AM 35.2°F1.8°C 31.7°F-0.2°C 87% 2.7 mph SE4.3 kmh SE 5.8 mph9.3 kmh 30.48 in1032.2 mb 0.00 in0.0 mm 0.00 in0.0 mm 0.00 in0.0 mm
09:38 AM 35.2°F1.8°C 31.7°F-0.2°C 87% 4.2 mph SE6.8 kmh SE 5.8 mph9.3 kmh 30.48 in1032.2 mb 0.00 in0.0 mm 0.00 in0.0 mm 0.00 in0.0 mm
09:37 AM 35.1°F1.7°C 31.6°F-0.2°C 87% 4.7 mph ESE7.6 kmh ESE 5.8 mph9.3 kmh 30.49 in1032.5 mb 0.00 in0.0 mm 0.00 in0.0 mm 0.00 in0.0 mm
09:36 AM 35.2°F1.8°C 31.7°F-0.2°C 87% 4.2 mph ESE6.8 kmh ESE 5.8 mph9.3 kmh 30.49 in1032.5 mb 0.00 in0.0 mm 0.00 in0.0 mm 0.00 in0.0 mm
09:35 AM 35.1°F1.7°C 31.6°F-0.2°C 87% 2.2 mph SSE3.5 kmh SSE 4.7 mph7.6 kmh 30.49 in1032.5 mb 0.00 in0.0 mm 0.00 in0.0 mm 0.00 in0.0 mm
09:34 AM 34.9°F1.6°C 31.7°F-0.2°C 88% 2.7 mph SE4.3 kmh SE 4.7 mph7.6 kmh 30.49 in1032.5 mb 0.00 in0.0 mm 0.00 in0.0 mm 0.00 in0.0 mm
09:33 AM 34.9°F1.6°C 31.7°F-0.2°C 88% 3.2 mph ESE5.1 kmh ESE 4.7 mph7.6 kmh 30.49 in1032.5 mb 0.00 in0.0 mm 0.00 in0.0 mm 0.00 in0.0 mm
09:32 AM 35.1°F1.7°C 31.9°F-0.1°C 88% 4.7 mph E7.6 kmh E 5.3 mph8.5 kmh 30.49 in1032.5 mb 0.00 in0.0 mm 0.00 in0.0 mm 0.00 in0.0 mm
09:31 AM 34.9°F1.6°C 31.7°F-0.2°C 88% 3.7 mph SE6.0 kmh SE 5.3 mph8.5 kmh 30.49 in1032.5 mb 0.00 in0.0 mm 0.00 in0.0 mm 0.00 in0.0 mm
09:30 AM 34.9°F1.6°C 31.7°F-0.2°C 88% 2.7 mph SSE4.3 kmh SSE 5.3 mph8.5 kmh 30.49 in1032.5 mb 0.00 in0.0 mm 0.00 in0.0 mm 0.00 in0.0 mm
09:29 AM 34.9°F1.6°C 31.7°F-0.2°C 88% 3.7 mph NNE6.0 kmh NNE 5.3 mph8.5 kmh 30.49 in1032.5 mb 0.00 in0.0 mm 0.00 in0.0 mm 0.00 in0.0 mm
09:28 AM 34.9°F1.6°C 31.7°F-0.2°C 88% 4.7 mph SE7.6 kmh SE 5.3 mph8.5 kmh 30.49 in1032.5 mb 0.00 in0.0 mm 0.00 in0.0 mm 0.00 in0.0 mm
09:27 AM 34.7°F1.5°C 31.5°F-0.3°C 88% 3.7 mph SE6.0 kmh SE 5.3 mph8.5 kmh 30.49 in1032.5 mb 0.00 in0.0 mm 0.00 in0.0 mm 0.00 in0.0 mm
09:26 AM 34.7°F1.5°C 31.5°F-0.3°C 88% 2.7 mph ESE4.3 kmh ESE 5.3 mph8.5 kmh 30.49 in1032.5 mb 0.00 in0.0 mm 0.00 in0.0 mm 0.00 in0.0 mm
09:25 AM 34.7°F1.5°C 31.5°F-0.3°C 88% 2.7 mph NE4.3 kmh NE 5.3 mph8.5 kmh 30.48 in1032.2 mb 0.00 in0.0 mm 0.00 in0.0 mm 0.00 in0.0 mm
09:24 AM 34.7°F1.5°C 31.5°F-0.3°C 88% 3.2 mph ESE5.1 kmh ESE 5.3 mph8.5 kmh 30.48 in1032.2 mb 0.00 in0.0 mm 0.00 in0.0 mm 0.00 in0.0 mm
09:23 AM 34.7°F1.5°C 31.5°F-0.3°C 88% 3.7 mph ESE6.0 kmh ESE 5.3 mph8.5 kmh 30.48 in1032.2 mb 0.00 in0.0 mm 0.00 in0.0 mm 0.00 in0.0 mm
09:22 AM 34.7°F1.5°C 31.5°F-0.3°C 88% 4.2 mph SSE6.8 kmh SSE 5.3 mph8.5 kmh 30.48 in1032.2 mb 0.00 in0.0 mm 0.00 in0.0 mm 0.00 in0.0 mm
09:21 AM 34.7°F1.5°C 31.5°F-0.3°C 88% 2.7 mph SSE4.3 kmh SSE 5.3 mph8.5 kmh 30.48 in1032.2 mb 0.00 in0.0 mm 0.00 in0.0 mm 0.00 in0.0 mm
09:20 AM 34.7°F1.5°C 31.5°F-0.3°C 88% 4.7 mph SE7.6 kmh SE 5.3 mph8.5 kmh 30.48 in1032.2 mb 0.00 in0.0 mm 0.00 in0.0 mm 0.00 in0.0 mm
09:19 AM 34.5°F1.4°C 31.3°F-0.4°C 88% 4.7 mph ENE7.6 kmh ENE 5.3 mph8.5 kmh 30.48 in1032.2 mb 0.00 in0.0 mm 0.00 in0.0 mm 0.00 in0.0 mm
09:18 AM 34.5°F1.4°C 31.3°F-0.4°C 88% 3.2 mph SSE5.1 kmh SSE 5.3 mph8.5 kmh 30.48 in1032.2 mb 0.00 in0.0 mm 0.00 in0.0 mm 0.00 in0.0 mm
09:17 AM 34.5°F1.4°C 31.3°F-0.4°C 88% 4.7 mph E7.6 kmh E 7.8 mph12.6 kmh 30.48 in1032.2 mb 0.00 in0.0 mm 0.00 in0.0 mm 0.00 in0.0 mm
09:16 AM 34.3°F1.3°C 31.1°F-0.5°C 88% 2.7 mph S4.3 kmh S 7.8 mph12.6 kmh 30.48 in1032.2 mb 0.00 in0.0 mm 0.00 in0.0 mm 0.00 in0.0 mm
09:15 AM 34.2°F1.2°C 31.0°F-0.6°C 88% 2.2 mph ESE3.5 kmh ESE 7.8 mph12.6 kmh 30.48 in1032.2 mb 0.00 in0.0 mm 0.00 in0.0 mm 0.00 in0.0 mm
09:14 AM 34.2°F1.2°C 31.0°F-0.6°C 88% 2.7 mph SE4.3 kmh SE 7.8 mph12.6 kmh 30.48 in1032.2 mb 0.00 in0.0 mm 0.00 in0.0 mm 0.00 in0.0 mm
09:13 AM 34.2°F1.2°C 31.0°F-0.6°C 88% 4.7 mph ESE7.6 kmh ESE 7.8 mph12.6 kmh 30.48 in1032.2 mb 0.00 in0.0 mm 0.00 in0.0 mm 0.00 in0.0 mm
09:12 AM 34.2°F1.2°C 31.0°F-0.6°C 88% 4.2 mph ESE6.8 kmh ESE 7.8 mph12.6 kmh 30.48 in1032.2 mb 0.00 in0.0 mm 0.00 in0.0 mm 0.00 in0.0 mm
09:11 AM 34.2°F1.2°C 31.0°F-0.6°C 88% 4.2 mph ESE6.8 kmh ESE 7.8 mph12.6 kmh 30.48 in1032.2 mb 0.00 in0.0 mm 0.00 in0.0 mm 0.00 in0.0 mm
09:10 AM 34.2°F1.2°C 31.0°F-0.6°C 88% 5.3 mph E8.5 kmh E 7.8 mph12.6 kmh 30.48 in1032.2 mb 0.00 in0.0 mm 0.00 in0.0 mm 0.00 in0.0 mm
09:09 AM 34.2°F1.2°C 31.0°F-0.6°C 88% 3.2 mph SE5.1 kmh SE 7.8 mph12.6 kmh 30.48 in1032.2 mb 0.00 in0.0 mm 0.00 in0.0 mm 0.00 in0.0 mm
09:08 AM 34.2°F1.2°C 31.0°F-0.6°C 88% 4.7 mph ESE7.6 kmh ESE 7.8 mph12.6 kmh 30.48 in1032.2 mb 0.00 in0.0 mm 0.00 in0.0 mm 0.00 in0.0 mm
09:07 AM 34.2°F1.2°C 31.3°F-0.4°C 89% 4.7 mph SE7.6 kmh SE 7.8 mph12.6 kmh 30.48 in1032.2 mb 0.00 in0.0 mm 0.00 in0.0 mm 0.00 in0.0 mm
09:06 AM 34.2°F1.2°C 31.3°F-0.4°C 89% 6.3 mph ESE10.1 kmh ESE 7.8 mph12.6 kmh 30.48 in1032.2 mb 0.00 in0.0 mm 0.00 in0.0 mm 0.00 in0.0 mm
09:05 AM 34.0°F1.1°C 31.1°F-0.5°C 89% 2.2 mph E3.5 kmh E 7.8 mph12.6 kmh 30.48 in1032.2 mb 0.00 in0.0 mm 0.00 in0.0 mm 0.00 in0.0 mm
09:04 AM 34.0°F1.1°C 31.1°F-0.5°C 89% 4.2 mph SE6.8 kmh SE 7.8 mph12.6 kmh 30.48 in1032.2 mb 0.00 in0.0 mm 0.00 in0.0 mm 0.00 in0.0 mm
09:03 AM 34.0°F1.1°C 31.1°F-0.5°C 89% 4.7 mph SSE7.6 kmh SSE 7.8 mph12.6 kmh 30.48 in1032.2 mb 0.00 in0.0 mm 0.00 in0.0 mm 0.00 in0.0 mm
09:02 AM 34.0°F1.1°C 31.1°F-0.5°C 89% 4.2 mph SE6.8 kmh SE 7.8 mph12.6 kmh 30.48 in1032.2 mb 0.00 in0.0 mm 0.00 in0.0 mm 0.00 in0.0 mm
09:01 AM 34.2°F1.2°C 31.3°F-0.4°C 89% 7.8 mph S12.6 kmh S 7.8 mph12.6 kmh 30.48 in1032.2 mb 0.00 in0.0 mm 0.00 in0.0 mm 0.00 in0.0 mm
09:00 AM 34.2°F1.2°C 31.3°F-0.4°C 89% 2.2 mph ESE3.5 kmh ESE 5.3 mph8.5 kmh 30.48 in1032.2 mb 0.00 in0.0 mm 0.00 in0.0 mm 0.00 in0.0 mm
08:59 AM 34.2°F1.2°C 31.3°F-0.4°C 89% 3.2 mph SE5.1 kmh SE 5.3 mph8.5 kmh 30.48 in1032.2 mb 0.00 in0.0 mm 0.00 in0.0 mm 0.00 in0.0 mm
08:58 AM 34.0°F1.1°C 31.1°F-0.5°C 89% 2.7 mph ESE4.3 kmh ESE 5.3 mph8.5 kmh 30.48 in1032.2 mb 0.00 in0.0 mm 0.00 in0.0 mm 0.00 in0.0 mm
08:57 AM 34.0°F1.1°C 31.1°F-0.5°C 89% 2.7 mph NE4.3 kmh NE 5.3 mph8.5 kmh 30.48 in1032.2 mb 0.00 in0.0 mm 0.00 in0.0 mm 0.00 in0.0 mm
08:56 AM 34.0°F1.1°C 31.1°F-0.5°C 89% 2.2 mph ESE3.5 kmh ESE 5.3 mph8.5 kmh 30.48 in1032.2 mb 0.00 in0.0 mm 0.00 in0.0 mm 0.00 in0.0 mm
08:55 AM 33.8°F1.0°C 30.9°F-0.6°C 89% 2.7 mph SE4.3 kmh SE 5.3 mph8.5 kmh 30.48 in1032.2 mb 0.00 in0.0 mm 0.00 in0.0 mm 0.00 in0.0 mm
08:54 AM 33.8°F1.0°C 30.9°F-0.6°C 89% 3.7 mph ESE6.0 kmh ESE 5.3 mph8.5 kmh 30.48 in1032.2 mb 0.00 in0.0 mm 0.00 in0.0 mm 0.00 in0.0 mm
08:53 AM 33.8°F1.0°C 30.9°F-0.6°C 89% 4.7 mph ESE7.6 kmh ESE 5.3 mph8.5 kmh 30.48 in1032.2 mb 0.00 in0.0 mm 0.00 in0.0 mm 0.00 in0.0 mm
08:52 AM 33.8°F1.0°C 30.9°F-0.6°C 89% 3.7 mph ESE6.0 kmh ESE 5.3 mph8.5 kmh 30.48 in1032.2 mb 0.00 in0.0 mm 0.00 in0.0 mm 0.00 in0.0 mm
08:51 AM 33.8°F1.0°C 30.9°F-0.6°C 89% 5.3 mph E8.5 kmh E 5.3 mph8.5 kmh 30.48 in1032.2 mb 0.00 in0.0 mm 0.00 in0.0 mm 0.00 in0.0 mm
08:50 AM 33.6°F0.9°C 30.7°F-0.7°C 89% 2.7 mph ESE4.3 kmh ESE 5.3 mph8.5 kmh 30.48 in1032.2 mb 0.00 in0.0 mm 0.00 in0.0 mm 0.00 in0.0 mm
08:49 AM 33.6°F0.9°C 30.7°F-0.7°C 89% 3.2 mph ESE5.1 kmh ESE 5.3 mph8.5 kmh 30.48 in1032.2 mb 0.00 in0.0 mm 0.00 in0.0 mm 0.00 in0.0 mm
08:48 AM 33.6°F0.9°C 30.7°F-0.7°C 89% 4.2 mph SSE6.8 kmh SSE 5.3 mph8.5 kmh 30.49 in1032.5 mb 0.00 in0.0 mm 0.00 in0.0 mm 0.00 in0.0 mm
08:47 AM 33.4°F0.8°C 30.8°F-0.7°C 90% 3.7 mph SE6.0 kmh SE 5.3 mph8.5 kmh 30.49 in1032.5 mb 0.00 in0.0 mm 0.00 in0.0 mm 0.00 in0.0 mm
08:46 AM 33.4°F0.8°C 30.8°F-0.7°C 90% 5.3 mph SE8.5 kmh SE 5.3 mph8.5 kmh 30.49 in1032.5 mb 0.00 in0.0 mm 0.00 in0.0 mm 0.00 in0.0 mm
08:45 AM 33.4°F0.8°C 30.8°F-0.7°C 90% 3.2 mph SSE5.1 kmh SSE 4.2 mph6.8 kmh 30.49 in1032.5 mb 0.00 in0.0 mm 0.00 in0.0 mm 0.00 in0.0 mm
08:44 AM 33.3°F0.7°C 30.7°F-0.7°C 90% 1.7 mph ESE2.7 kmh ESE 4.2 mph6.8 kmh 30.49 in1032.5 mb 0.00 in0.0 mm 0.00 in0.0 mm 0.00 in0.0 mm
08:43 AM 33.3°F0.7°C 30.7°F-0.7°C 90% 1.7 mph ESE2.7 kmh ESE 4.7 mph7.6 kmh 30.49 in1032.5 mb 0.00 in0.0 mm 0.00 in0.0 mm 0.00 in0.0 mm
08:42 AM 33.1°F0.6°C 30.8°F-0.7°C 91% 3.2 mph SE5.1 kmh SE 4.7 mph7.6 kmh 30.49 in1032.5 mb 0.00 in0.0 mm 0.00 in0.0 mm 0.00 in0.0 mm
08:41 AM 33.1°F0.6°C 30.8°F-0.7°C 91% 4.2 mph SSE6.8 kmh SSE 4.7 mph7.6 kmh 30.49 in1032.5 mb 0.00 in0.0 mm 0.00 in0.0 mm 0.00 in0.0 mm
08:40 AM 32.9°F0.5°C 30.6°F-0.8°C 91% 2.2 mph ESE3.5 kmh ESE 4.7 mph7.6 kmh 30.49 in1032.5 mb 0.00 in0.0 mm 0.00 in0.0 mm 0.00 in0.0 mm
08:39 AM 32.9°F0.5°C 30.6°F-0.8°C 91% 3.2 mph ESE5.1 kmh ESE 4.7 mph7.6 kmh 30.49 in1032.5 mb 0.00 in0.0 mm 0.00 in0.0 mm 0.00 in0.0 mm
08:38 AM 32.9°F0.5°C 30.6°F-0.8°C 91% 2.7 mph ESE4.3 kmh ESE 4.7 mph7.6 kmh 30.49 in1032.5 mb 0.00 in0.0 mm 0.00 in0.0 mm 0.00 in0.0 mm
08:37 AM 32.7°F0.4°C 30.4°F-0.9°C 91% 3.2 mph ESE5.1 kmh ESE 4.7 mph7.6 kmh 30.49 in1032.5 mb 0.00 in0.0 mm 0.00 in0.0 mm 0.00 in0.0 mm
08:36 AM 32.7°F0.4°C 30.6°F-0.8°C 92% 2.7 mph SE4.3 kmh SE 4.7 mph7.6 kmh 30.48 in1032.2 mb 0.00 in0.0 mm 0.00 in0.0 mm 0.00 in0.0 mm
08:35 AM 32.5°F0.3°C 30.4°F-0.9°C 92% 2.7 mph ESE4.3 kmh ESE 4.7 mph7.6 kmh 30.48 in1032.2 mb 0.00 in0.0 mm 0.00 in0.0 mm 0.00 in0.0 mm
08:34 AM 32.5°F0.3°C 30.4°F-0.9°C 92% 3.7 mph SE6.0 kmh SE 4.7 mph7.6 kmh 30.48 in1032.2 mb 0.00 in0.0 mm 0.00 in0.0 mm 0.00 in0.0 mm
08:33 AM 32.5°F0.3°C 30.4°F-0.9°C 92% 2.2 mph S3.5 kmh S 4.7 mph7.6 kmh 30.48 in1032.2 mb 0.00 in0.0 mm 0.00 in0.0 mm 0.00 in0.0 mm
08:32 AM 32.4°F0.2°C 30.3°F-0.9°C 92% 4.7 mph ESE7.6 kmh ESE 4.7 mph7.6 kmh 30.48 in1032.2 mb 0.00 in0.0 mm 0.00 in0.0 mm 0.00 in0.0 mm
08:31 AM 32.2°F0.1°C 30.1°F-1.1°C 92% 2.7 mph SE4.3 kmh SE 3.2 mph5.1 kmh 30.48 in1032.2 mb 0.00 in0.0 mm 0.00 in0.0 mm 0.00 in0.0 mm
08:30 AM 32.0°F0.0°C 29.9°F-1.2°C 92% 2.2 mph ENE3.5 kmh ENE 3.2 mph5.1 kmh 30.48 in1032.2 mb 0.00 in0.0 mm 0.00 in0.0 mm 0.00 in0.0 mm
08:29 AM 32.0°F0.0°C 29.9°F-1.2°C 92% 2.2 mph E3.5 kmh E 3.2 mph5.1 kmh 30.48 in1032.2 mb 0.00 in0.0 mm 0.00 in0.0 mm 0.00 in0.0 mm
08:28 AM 31.8°F-0.1°C 29.7°F-1.3°C 92% 1.7 mph ESE2.7 kmh ESE 3.2 mph5.1 kmh 30.48 in1032.2 mb 0.00 in0.0 mm 0.00 in0.0 mm 0.00 in0.0 mm
08:27 AM 31.8°F-0.1°C 29.7°F-1.3°C 92% 2.2 mph ESE3.5 kmh ESE 3.2 mph5.1 kmh 30.48 in1032.2 mb 0.00 in0.0 mm 0.00 in0.0 mm 0.00 in0.0 mm
08:26 AM 31.8°F-0.1°C 29.7°F-1.3°C 92% Calm Calm 3.2 mph5.1 kmh 30.48 in1032.2 mb 0.00 in0.0 mm 0.00 in0.0 mm 0.00 in0.0 mm
08:25 AM 31.6°F-0.2°C 29.5°F-1.4°C 92% 1.7 mph ESE2.7 kmh ESE 3.2 mph5.1 kmh 30.49 in1032.5 mb 0.00 in0.0 mm 0.00 in0.0 mm 0.00 in0.0 mm
08:24 AM 31.6°F-0.2°C 29.5°F-1.4°C 92% 1.7 mph ESE2.7 kmh ESE 3.2 mph5.1 kmh 30.49 in1032.5 mb 0.00 in0.0 mm 0.00 in0.0 mm 0.00 in0.0 mm
08:23 AM 31.5°F-0.3°C 29.4°F-1.4°C 92% 1.7 mph SSE2.7 kmh SSE 3.2 mph5.1 kmh 30.49 in1032.5 mb 0.00 in0.0 mm 0.00 in0.0 mm 0.00 in0.0 mm
08:22 AM 31.3°F-0.4°C 29.3°F-1.5°C 92% Calm Calm 3.2 mph5.1 kmh 30.49 in1032.5 mb 0.00 in0.0 mm 0.00 in0.0 mm 0.00 in0.0 mm
08:21 AM 31.3°F-0.4°C 29.3°F-1.5°C 92% Calm Calm 3.2 mph5.1 kmh 30.49 in1032.5 mb 0.00 in0.0 mm 0.00 in0.0 mm 0.00 in0.0 mm
08:20 AM 31.1°F-0.5°C 29.1°F-1.6°C 92% 2.7 mph ESE4.3 kmh ESE 3.2 mph5.1 kmh 30.49 in1032.5 mb 0.00 in0.0 mm 0.00 in0.0 mm 0.00 in0.0 mm
08:19 AM 31.1°F-0.5°C 29.1°F-1.6°C 92% Calm Calm 3.2 mph5.1 kmh 30.49 in1032.5 mb 0.00 in0.0 mm 0.00 in0.0 mm 0.00 in0.0 mm
08:18 AM 31.1°F-0.5°C 29.1°F-1.6°C 92% 1.7 mph ESE2.7 kmh ESE 3.2 mph5.1 kmh 30.49 in1032.5 mb 0.00 in0.0 mm 0.00 in0.0 mm 0.00 in0.0 mm
08:17 AM 31.1°F-0.5°C 29.1°F-1.6°C 92% Calm Calm 3.2 mph5.1 kmh 30.49 in1032.5 mb 0.00 in0.0 mm 0.00 in0.0 mm 0.00 in0.0 mm
08:16 AM 30.9°F-0.6°C 28.9°F-1.7°C 92% Calm Calm 3.7 mph6.0 kmh 30.49 in1032.5 mb 0.00 in0.0 mm 0.00 in0.0 mm 0.00 in0.0 mm
08:15 AM 30.9°F-0.6°C 28.9°F-1.7°C 92% 1.7 mph NNE2.7 kmh NNE 3.7 mph6.0 kmh 30.49 in1032.5 mb 0.00 in0.0 mm 0.00 in0.0 mm 0.00 in0.0 mm
08:14 AM 30.7°F-0.7°C 28.7°F-1.8°C 92% Calm Calm 3.7 mph6.0 kmh 30.49 in1032.5 mb 0.00 in0.0 mm 0.00 in0.0 mm 0.00 in0.0 mm
08:13 AM 30.7°F-0.7°C 28.7°F-1.8°C 92% Calm Calm 3.7 mph6.0 kmh 30.48 in1032.2 mb 0.00 in0.0 mm 0.00 in0.0 mm 0.00 in0.0 mm
08:12 AM 30.6°F-0.8°C 28.6°F-1.9°C 92% Calm Calm 3.7 mph6.0 kmh 30.48 in1032.2 mb 0.00 in0.0 mm 0.00 in0.0 mm 0.00 in0.0 mm
08:11 AM 30.6°F-0.8°C 28.6°F-1.9°C 92% Calm Calm 3.7 mph6.0 kmh 30.48 in1032.2 mb 0.00 in0.0 mm 0.00 in0.0 mm 0.00 in0.0 mm
08:10 AM 30.6°F-0.8°C 28.6°F-1.9°C 92% Calm Calm 3.7 mph6.0 kmh 30.48 in1032.2 mb 0.00 in0.0 mm 0.00 in0.0 mm 0.00 in0.0 mm
08:09 AM 30.6°F-0.8°C 28.6°F-1.9°C 92% Calm Calm 3.7 mph6.0 kmh 30.48 in1032.2 mb 0.00 in0.0 mm 0.00 in0.0 mm 0.00 in0.0 mm
08:08 AM 30.4°F-0.9°C 28.4°F-2.0°C 92% 1.7 mph ENE2.7 kmh ENE 3.7 mph6.0 kmh 30.48 in1032.2 mb 0.00 in0.0 mm 0.00 in0.0 mm 0.00 in0.0 mm
08:07 AM 30.4°F-0.9°C 28.4°F-2.0°C 92% 2.2 mph NE3.5 kmh NE 3.7 mph6.0 kmh 30.48 in1032.2 mb 0.00 in0.0 mm 0.00 in0.0 mm 0.00 in0.0 mm
08:06 AM 30.4°F-0.9°C 28.4°F-2.0°C 92% 2.7 mph E4.3 kmh E 3.2 mph5.1 kmh 30.48 in1032.2 mb 0.00 in0.0 mm 0.00 in0.0 mm 0.00 in0.0 mm
08:05 AM 30.2°F-1.0°C 28.2°F-2.1°C 92% 2.7 mph NE4.3 kmh NE 3.2 mph5.1 kmh 30.48 in1032.2 mb 0.00 in0.0 mm 0.00 in0.0 mm 0.00 in0.0 mm
08:04 AM 30.2°F-1.0°C 27.9°F-2.3°C 91% 1.7 mph NE2.7 kmh NE 3.2 mph5.1 kmh 30.48 in1032.2 mb 0.00 in0.0 mm 0.00 in0.0 mm 0.00 in0.0 mm
08:03 AM 30.2°F-1.0°C 27.9°F-2.3°C 91% Calm Calm 3.2 mph5.1 kmh 30.48 in1032.2 mb 0.00 in0.0 mm 0.00 in0.0 mm 0.00 in0.0 mm
08:02 AM 30.2°F-1.0°C 27.9°F-2.3°C 91% Calm Calm 3.2 mph5.1 kmh 30.48 in1032.2 mb 0.00 in0.0 mm 0.00 in0.0 mm 0.00 in0.0 mm
08:01 AM 30.2°F-1.0°C 27.9°F-2.3°C 91% Calm Calm 3.2 mph5.1 kmh 30.48 in1032.2 mb 0.00 in0.0 mm 0.00 in0.0 mm 0.00 in0.0 mm
08:00 AM 30.2°F-1.0°C 27.9°F-2.3°C 91% 1.7 mph E2.7 kmh E 3.2 mph5.1 kmh 30.48 in1032.2 mb 0.00 in0.0 mm 0.00 in0.0 mm 0.00 in0.0 mm
07:59 AM 30.0°F-1.1°C 27.7°F-2.4°C 91% 2.2 mph NE3.5 kmh NE 3.2 mph5.1 kmh 30.48 in1032.2 mb 0.00 in0.0 mm 0.00 in0.0 mm 0.00 in0.0 mm
07:58 AM 30.0°F-1.1°C 27.7°F-2.4°C 91% 1.1 mph NE1.8 kmh NE 2.7 mph4.3 kmh 30.48 in1032.2 mb 0.00 in0.0 mm 0.00 in0.0 mm 0.00 in0.0 mm
07:57 AM 30.0°F-1.1°C 27.7°F-2.4°C 91% 1.7 mph ESE2.7 kmh ESE 3.2 mph5.1 kmh 30.48 in1032.2 mb 0.00 in0.0 mm 0.00 in0.0 mm 0.00 in0.0 mm
07:56 AM 30.0°F-1.1°C 27.7°F-2.4°C 91% Calm Calm 3.7 mph6.0 kmh 30.48 in1032.2 mb 0.00 in0.0 mm 0.00 in0.0 mm 0.00 in0.0 mm
07:55 AM 30.0°F-1.1°C 27.7°F-2.4°C 91% 2.2 mph ENE3.5 kmh ENE 3.7 mph6.0 kmh 30.48 in1032.2 mb 0.00 in0.0 mm 0.00 in0.0 mm 0.00 in0.0 mm
07:54 AM 29.8°F-1.2°C 27.5°F-2.5°C 91% Calm Calm 4.7 mph7.6 kmh 30.48 in1032.2 mb 0.00 in0.0 mm 0.00 in0.0 mm 0.00 in0.0 mm
07:53 AM 29.8°F-1.2°C 27.5°F-2.5°C 91% 1.7 mph NE2.7 kmh NE 4.7 mph7.6 kmh 30.48 in1032.2 mb 0.00 in0.0 mm 0.00 in0.0 mm 0.00 in0.0 mm
07:52 AM 29.8°F-1.2°C 27.5°F-2.5°C 91% Calm Calm 4.7 mph7.6 kmh 30.48 in1032.2 mb 0.00 in0.0 mm 0.00 in0.0 mm 0.00 in0.0 mm
07:51 AM 29.7°F-1.3°C 27.4°F-2.6°C 91% Calm Calm 4.7 mph7.6 kmh 30.48 in1032.2 mb 0.00 in0.0 mm 0.00 in0.0 mm 0.00 in0.0 mm
07:50 AM 29.7°F-1.3°C 27.4°F-2.6°C 91% 2.7 mph E4.3 kmh E 4.7 mph7.6 kmh 30.48 in1032.2 mb 0.00 in0.0 mm 0.00 in0.0 mm 0.00 in0.0 mm
07:49 AM 29.7°F-1.3°C 27.4°F-2.6°C 91% Calm Calm 4.7 mph7.6 kmh 30.48 in1032.2 mb 0.00 in0.0 mm 0.00 in0.0 mm 0.00 in0.0 mm
07:48 AM 29.7°F-1.3°C 27.4°F-2.6°C 91% 1.7 mph NE2.7 kmh NE 4.7 mph7.6 kmh 30.48 in1032.2 mb 0.00 in0.0 mm 0.00 in0.0 mm 0.00 in0.0 mm
07:47 AM 29.7°F-1.3°C 27.4°F-2.6°C 91% 3.7 mph ENE6.0 kmh ENE 4.7 mph7.6 kmh 30.48 in1032.2 mb 0.00 in0.0 mm 0.00 in0.0 mm 0.00 in0.0 mm
07:46 AM 29.7°F-1.3°C 27.4°F-2.6°C 91% 1.7 mph ENE2.7 kmh ENE 4.7 mph7.6 kmh 30.48 in1032.2 mb 0.00 in0.0 mm 0.00 in0.0 mm 0.00 in0.0 mm
07:45 AM 29.7°F-1.3°C 27.4°F-2.6°C 91% 4.7 mph NE7.6 kmh NE 4.7 mph7.6 kmh 30.48 in1032.2 mb 0.00 in0.0 mm 0.00 in0.0 mm 0.00 in0.0 mm
07:44 AM 29.5°F-1.4°C 27.2°F-2.7°C 91% 3.2 mph NE5.1 kmh NE 4.7 mph7.6 kmh 30.48 in1032.2 mb 0.00 in0.0 mm 0.00 in0.0 mm 0.00 in0.0 mm
07:43 AM 29.5°F-1.4°C 27.2°F-2.7°C 91% 2.7 mph NE4.3 kmh NE 4.7 mph7.6 kmh 30.48 in1032.2 mb 0.00 in0.0 mm 0.00 in0.0 mm 0.00 in0.0 mm
07:42 AM 29.5°F-1.4°C 27.2°F-2.7°C 91% 3.2 mph ENE5.1 kmh ENE 3.7 mph6.0 kmh 30.48 in1032.2 mb 0.00 in0.0 mm 0.00 in0.0 mm 0.00 in0.0 mm
07:41 AM 29.5°F-1.4°C 27.2°F-2.7°C 91% Calm Calm 4.2 mph6.8 kmh 30.48 in1032.2 mb 0.00 in0.0 mm 0.00 in0.0 mm 0.00 in0.0 mm
07:40 AM 29.3°F-1.5°C 27.0°F-2.8°C 91% Calm Calm 4.2 mph6.8 kmh 30.48 in1032.2 mb 0.00 in0.0 mm 0.00 in0.0 mm 0.00 in0.0 mm
07:39 AM 29.3°F-1.5°C 27.0°F-2.8°C 91% 1.7 mph NE2.7 kmh NE 4.2 mph6.8 kmh 30.48 in1032.2 mb 0.00 in0.0 mm 0.00 in0.0 mm 0.00 in0.0 mm
07:38 AM 29.3°F-1.5°C 27.0°F-2.8°C 91% 2.7 mph NE4.3 kmh NE 4.2 mph6.8 kmh 30.48 in1032.2 mb 0.00 in0.0 mm 0.00 in0.0 mm 0.00 in0.0 mm
07:37 AM 29.3°F-1.5°C 27.0°F-2.8°C 91% 1.7 mph NE2.7 kmh NE 4.2 mph6.8 kmh 30.47 in1031.8 mb 0.00 in0.0 mm 0.00 in0.0 mm 0.00 in0.0 mm
07:36 AM 29.3°F-1.5°C 27.0°F-2.8°C 91% 2.7 mph NE4.3 kmh NE 4.2 mph6.8 kmh 30.47 in1031.8 mb 0.00 in0.0 mm 0.00 in0.0 mm 0.00 in0.0 mm
07:35 AM 29.3°F-1.5°C 27.0°F-2.8°C 91% 3.2 mph NE5.1 kmh NE 4.2 mph6.8 kmh 30.47 in1031.8 mb 0.00 in0.0 mm 0.00 in0.0 mm 0.00 in0.0 mm
07:34 AM 29.3°F-1.5°C 27.0°F-2.8°C 91% 3.2 mph NE5.1 kmh NE 4.2 mph6.8 kmh 30.47 in1031.8 mb 0.00 in0.0 mm 0.00 in0.0 mm 0.00 in0.0 mm
07:33 AM 29.3°F-1.5°C 27.0°F-2.8°C 91% 1.1 mph NE1.8 kmh NE 4.2 mph6.8 kmh 30.47 in1031.8 mb 0.00 in0.0 mm 0.00 in0.0 mm 0.00 in0.0 mm
07:32 AM 29.1°F-1.6°C 26.8°F-2.9°C 91% 1.1 mph NE1.8 kmh NE 4.2 mph6.8 kmh 30.47 in1031.8 mb 0.00 in0.0 mm 0.00 in0.0 mm 0.00 in0.0 mm
07:31 AM 29.1°F-1.6°C 26.8°F-2.9°C 91% 3.2 mph ESE5.1 kmh ESE 4.2 mph6.8 kmh 30.47 in1031.8 mb 0.00 in0.0 mm 0.00 in0.0 mm 0.00 in0.0 mm
07:30 AM 29.1°F-1.6°C 26.8°F-2.9°C 91% 1.7 mph NNE2.7 kmh NNE 4.2 mph6.8 kmh 30.47 in1031.8 mb 0.00 in0.0 mm 0.00 in0.0 mm 0.00 in0.0 mm
07:29 AM 29.1°F-1.6°C 26.8°F-2.9°C 91% 4.2 mph ENE6.8 kmh ENE 4.2 mph6.8 kmh 30.47 in1031.8 mb 0.00 in0.0 mm 0.00 in0.0 mm 0.00 in0.0 mm
07:28 AM 29.1°F-1.6°C 26.8°F-2.9°C 91% 2.7 mph NNE4.3 kmh NNE 4.2 mph6.8 kmh 30.47 in1031.8 mb 0.00 in0.0 mm 0.00 in0.0 mm 0.00 in0.0 mm
07:27 AM 29.1°F-1.6°C 26.5°F-3.1°C 90% 4.2 mph E6.8 kmh E 4.2 mph6.8 kmh 30.47 in1031.8 mb 0.00 in0.0 mm 0.00 in0.0 mm 0.00 in0.0 mm
07:26 AM 29.1°F-1.6°C 26.5°F-3.1°C 90% 2.2 mph NE3.5 kmh NE 4.2 mph6.8 kmh 30.47 in1031.8 mb 0.00 in0.0 mm 0.00 in0.0 mm 0.00 in0.0 mm
07:25 AM 29.1°F-1.6°C 26.5°F-3.1°C 90% 2.7 mph ENE4.3 kmh ENE 4.2 mph6.8 kmh 30.47 in1031.8 mb 0.00 in0.0 mm 0.00 in0.0 mm 0.00 in0.0 mm
07:24 AM 29.1°F-1.6°C 26.5°F-3.1°C 90% 1.7 mph NE2.7 kmh NE 4.2 mph6.8 kmh 30.48 in1032.2 mb 0.00 in0.0 mm 0.00 in0.0 mm 0.00 in0.0 mm
07:23 AM 28.9°F-1.7°C 26.3°F-3.2°C 90% Calm Calm 4.2 mph6.8 kmh 30.48 in1032.2 mb 0.00 in0.0 mm 0.00 in0.0 mm 0.00 in0.0 mm
07:22 AM 28.9°F-1.7°C 26.3°F-3.2°C 90% Calm Calm 4.2 mph6.8 kmh 30.48 in1032.2 mb 0.00 in0.0 mm 0.00 in0.0 mm 0.00 in0.0 mm
07:21 AM 28.9°F-1.7°C 26.3°F-3.2°C 90% Calm Calm 4.2 mph6.8 kmh 30.48 in1032.2 mb 0.00 in0.0 mm 0.00 in0.0 mm 0.00 in0.0 mm
07:20 AM 28.8°F-1.8°C 26.2°F-3.2°C 90% 1.7 mph NE2.7 kmh NE 4.2 mph6.8 kmh 30.48 in1032.2 mb 0.00 in0.0 mm 0.00 in0.0 mm 0.00 in0.0 mm
07:19 AM 28.8°F-1.8°C 26.2°F-3.2°C 90% 4.2 mph NE6.8 kmh NE 4.2 mph6.8 kmh 30.48 in1032.2 mb 0.00 in0.0 mm 0.00 in0.0 mm 0.00 in0.0 mm
07:18 AM 28.8°F-1.8°C 26.2°F-3.2°C 90% 2.7 mph NE4.3 kmh NE 2.7 mph4.3 kmh 30.48 in1032.2 mb 0.00 in0.0 mm 0.00 in0.0 mm 0.00 in0.0 mm
07:17 AM 28.8°F-1.8°C 26.2°F-3.2°C 90% 2.7 mph NNE4.3 kmh NNE 3.7 mph6.0 kmh 30.48 in1032.2 mb 0.00 in0.0 mm 0.00 in0.0 mm 0.00 in0.0 mm
07:16 AM 28.8°F-1.8°C 26.2°F-3.2°C 90% 1.7 mph NE2.7 kmh NE 3.7 mph6.0 kmh 30.48 in1032.2 mb 0.00 in0.0 mm 0.00 in0.0 mm 0.00 in0.0 mm
07:15 AM 28.8°F-1.8°C 26.2°F-3.2°C 90% 1.7 mph NE2.7 kmh NE 3.7 mph6.0 kmh 30.48 in1032.2 mb 0.00 in0.0 mm 0.00 in0.0 mm 0.00 in0.0 mm
07:14 AM 28.6°F-1.9°C 26.0°F-3.3°C 90% 2.2 mph NE3.5 kmh NE 3.7 mph6.0 kmh 30.48 in1032.2 mb 0.00 in0.0 mm 0.00 in0.0 mm 0.00 in0.0 mm
07:13 AM 28.6°F-1.9°C 26.0°F-3.3°C 90% Calm Calm 3.7 mph6.0 kmh 30.46 in1031.5 mb 0.00 in0.0 mm 0.00 in0.0 mm 0.00 in0.0 mm
07:12 AM 28.6°F-1.9°C 26.0°F-3.3°C 90% 1.7 mph NE2.7 kmh NE 3.7 mph6.0 kmh 30.46 in1031.5 mb 0.00 in0.0 mm 0.00 in0.0 mm 0.00 in0.0 mm
07:11 AM 28.6°F-1.9°C 26.0°F-3.3°C 90% 2.2 mph NE3.5 kmh NE 4.7 mph7.6 kmh 30.46 in1031.5 mb 0.00 in0.0 mm 0.00 in0.0 mm 0.00 in0.0 mm
07:10 AM 28.6°F-1.9°C 26.0°F-3.3°C 90% Calm Calm 4.7 mph7.6 kmh 30.46 in1031.5 mb 0.00 in0.0 mm 0.00 in0.0 mm 0.00 in0.0 mm
07:09 AM 28.6°F-1.9°C 26.0°F-3.3°C 90% 1.1 mph ENE1.8 kmh ENE 4.7 mph7.6 kmh 30.46 in1031.5 mb 0.00 in0.0 mm 0.00 in0.0 mm 0.00 in0.0 mm
07:08 AM 28.6°F-1.9°C 26.0°F-3.3°C 90% 2.2 mph NE3.5 kmh NE 4.7 mph7.6 kmh 30.46 in1031.5 mb 0.00 in0.0 mm 0.00 in0.0 mm 0.00 in0.0 mm
07:07 AM 28.6°F-1.9°C 26.0°F-3.3°C 90% 1.1 mph ESE1.8 kmh ESE 4.7 mph7.6 kmh 30.46 in1031.5 mb 0.00 in0.0 mm 0.00 in0.0 mm 0.00 in0.0 mm
07:06 AM 28.6°F-1.9°C 26.0°F-3.3°C 90% Calm Calm 4.7 mph7.6 kmh 30.46 in1031.5 mb 0.00 in0.0 mm 0.00 in0.0 mm 0.00 in0.0 mm
07:05 AM 28.6°F-1.9°C 26.0°F-3.3°C 90% 2.7 mph NE4.3 kmh NE 4.7 mph7.6 kmh 30.46 in1031.5 mb 0.00 in0.0 mm 0.00 in0.0 mm 0.00 in0.0 mm
07:04 AM 28.6°F-1.9°C 26.0°F-3.3°C 90% 2.2 mph N3.5 kmh N 4.7 mph7.6 kmh 30.46 in1031.5 mb 0.00 in0.0 mm 0.00 in0.0 mm 0.00 in0.0 mm
07:03 AM 28.6°F-1.9°C 26.0°F-3.3°C 90% 2.7 mph NNE4.3 kmh NNE 4.7 mph7.6 kmh 30.46 in1031.5 mb 0.00 in0.0 mm 0.00 in0.0 mm 0.00 in0.0 mm
07:02 AM 28.6°F-1.9°C 26.0°F-3.3°C 90% 2.2 mph ENE3.5 kmh ENE 4.7 mph7.6 kmh 30.46 in1031.5 mb 0.00 in0.0 mm 0.00 in0.0 mm 0.00 in0.0 mm
07:01 AM 28.6°F-1.9°C 26.0°F-3.3°C 90% 3.2 mph NE5.1 kmh NE 4.2 mph6.8 kmh 30.47 in1031.8 mb 0.00 in0.0 mm 0.00 in0.0 mm 0.00 in0.0 mm
07:00 AM 28.6°F-1.9°C 26.0°F-3.3°C 90% 1.7 mph ESE2.7 kmh ESE 4.2 mph6.8 kmh 30.47 in1031.8 mb 0.00 in0.0 mm 0.00 in0.0 mm 0.00 in0.0 mm
06:59 AM 28.4°F-2.0°C 25.8°F-3.4°C 90% Calm Calm 4.2 mph6.8 kmh 30.47 in1031.8 mb 0.00 in0.0 mm 0.00 in0.0 mm 0.00 in0.0 mm
06:58 AM 28.4°F-2.0°C 25.8°F-3.4°C 90% 2.7 mph NE4.3 kmh NE 4.2 mph6.8 kmh 30.47 in1031.8 mb 0.00 in0.0 mm 0.00 in0.0 mm 0.00 in0.0 mm
06:57 AM 28.4°F-2.0°C 25.8°F-3.4°C 90% 3.2 mph ENE5.1 kmh ENE 4.2 mph6.8 kmh 30.47 in1031.8 mb 0.00 in0.0 mm 0.00 in0.0 mm 0.00 in0.0 mm
06:56 AM 28.4°F-2.0°C 25.8°F-3.4°C 90% 1.7 mph ENE2.7 kmh ENE 4.2 mph6.8 kmh 30.47 in1031.8 mb 0.00 in0.0 mm 0.00 in0.0 mm 0.00 in0.0 mm
06:55 AM 28.4°F-2.0°C 25.8°F-3.4°C 90% 2.2 mph NNE3.5 kmh NNE 4.2 mph6.8 kmh 30.47 in1031.8 mb 0.00 in0.0 mm 0.00 in0.0 mm 0.00 in0.0 mm
06:54 AM 28.4°F-2.0°C 25.8°F-3.4°C 90% 1.1 mph ENE1.8 kmh ENE 4.2 mph6.8 kmh 30.47 in1031.8 mb 0.00 in0.0 mm 0.00 in0.0 mm 0.00 in0.0 mm
06:53 AM 28.4°F-2.0°C 25.8°F-3.4°C 90% 3.2 mph E5.1 kmh E 4.2 mph6.8 kmh 30.47 in1031.8 mb 0.00 in0.0 mm 0.00 in0.0 mm 0.00 in0.0 mm
06:52 AM 28.4°F-2.0°C 25.8°F-3.4°C 90% 2.2 mph NE3.5 kmh NE 4.2 mph6.8 kmh 30.47 in1031.8 mb 0.00 in0.0 mm 0.00 in0.0 mm 0.00 in0.0 mm
06:51 AM 28.2°F-2.1°C 25.7°F-3.5°C 90% 2.2 mph NE3.5 kmh NE 4.2 mph6.8 kmh 30.47 in1031.8 mb 0.00 in0.0 mm 0.00 in0.0 mm 0.00 in0.0 mm
06:50 AM 28.2°F-2.1°C 25.7°F-3.5°C 90% 1.1 mph NE1.8 kmh NE 4.2 mph6.8 kmh 30.47 in1031.8 mb 0.00 in0.0 mm 0.00 in0.0 mm 0.00 in0.0 mm
06:49 AM 28.2°F-2.1°C 25.7°F-3.5°C 90% 1.7 mph E2.7 kmh E 4.2 mph6.8 kmh 30.46 in1031.5 mb 0.00 in0.0 mm 0.00 in0.0 mm 0.00 in0.0 mm
06:48 AM 28.2°F-2.1°C 25.7°F-3.5°C 90% 1.7 mph ESE2.7 kmh ESE 4.2 mph6.8 kmh 30.46 in1031.5 mb 0.00 in0.0 mm 0.00 in0.0 mm 0.00 in0.0 mm
06:47 AM 28.2°F-2.1°C 25.7°F-3.5°C 90% 3.2 mph NE5.1 kmh NE 4.2 mph6.8 kmh 30.46 in1031.5 mb 0.00 in0.0 mm 0.00 in0.0 mm 0.00 in0.0 mm
06:46 AM 28.2°F-2.1°C 25.7°F-3.5°C 90% 3.2 mph NE5.1 kmh NE 4.2 mph6.8 kmh 30.46 in1031.5 mb 0.00 in0.0 mm 0.00 in0.0 mm 0.00 in0.0 mm
06:45 AM 28.2°F-2.1°C 25.7°F-3.5°C 90% 4.2 mph ESE6.8 kmh ESE 4.2 mph6.8 kmh 30.46 in1031.5 mb 0.00 in0.0 mm 0.00 in0.0 mm 0.00 in0.0 mm
06:44 AM 28.2°F-2.1°C 25.7°F-3.5°C 90% 4.2 mph NE6.8 kmh NE 4.2 mph6.8 kmh 30.46 in1031.5 mb 0.00 in0.0 mm 0.00 in0.0 mm 0.00 in0.0 mm
06:43 AM 28.2°F-2.1°C 25.7°F-3.5°C 90% 4.2 mph ESE6.8 kmh ESE 4.2 mph6.8 kmh 30.46 in1031.5 mb 0.00 in0.0 mm 0.00 in0.0 mm 0.00 in0.0 mm
06:42 AM 28.2°F-2.1°C 25.7°F-3.5°C 90% 1.1 mph ENE1.8 kmh ENE 4.2 mph6.8 kmh 30.46 in1031.5 mb 0.00 in0.0 mm 0.00 in0.0 mm 0.00 in0.0 mm
06:41 AM 28.2°F-2.1°C 25.7°F-3.5°C 90% 2.2 mph ENE3.5 kmh ENE 4.2 mph6.8 kmh 30.46 in1031.5 mb 0.00 in0.0 mm 0.00 in0.0 mm 0.00 in0.0 mm
06:40 AM 28.0°F-2.2°C 25.5°F-3.6°C 90% 4.2 mph NNE6.8 kmh NNE 4.2 mph6.8 kmh 30.46 in1031.5 mb 0.00 in0.0 mm 0.00 in0.0 mm 0.00 in0.0 mm
06:39 AM 28.0°F-2.2°C 25.5°F-3.6°C 90% 1.7 mph ENE2.7 kmh ENE 4.2 mph6.8 kmh 30.46 in1031.5 mb 0.00 in0.0 mm 0.00 in0.0 mm 0.00 in0.0 mm
06:38 AM 28.0°F-2.2°C 25.5°F-3.6°C 90% 4.2 mph ENE6.8 kmh ENE 4.2 mph6.8 kmh 30.46 in1031.5 mb 0.00 in0.0 mm 0.00 in0.0 mm 0.00 in0.0 mm
06:37 AM 28.0°F-2.2°C 25.5°F-3.6°C 90% 3.7 mph ESE6.0 kmh ESE 4.2 mph6.8 kmh 30.46 in1031.5 mb 0.00 in0.0 mm 0.00 in0.0 mm 0.00 in0.0 mm
06:36 AM 28.0°F-2.2°C 25.5°F-3.6°C 90% 2.2 mph ESE3.5 kmh ESE 2.7 mph4.3 kmh 30.46 in1031.5 mb 0.00 in0.0 mm 0.00 in0.0 mm 0.00 in0.0 mm
06:35 AM 28.0°F-2.2°C 25.5°F-3.6°C 90% 2.2 mph E3.5 kmh E 2.7 mph4.3 kmh 30.46 in1031.5 mb 0.00 in0.0 mm 0.00 in0.0 mm 0.00 in0.0 mm
06:34 AM 28.0°F-2.2°C 25.5°F-3.6°C 90% 2.2 mph ENE3.5 kmh ENE 2.7 mph4.3 kmh 30.46 in1031.5 mb 0.00 in0.0 mm 0.00 in0.0 mm 0.00 in0.0 mm
06:33 AM 28.0°F-2.2°C 25.5°F-3.6°C 90% Calm Calm 2.7 mph4.3 kmh 30.46 in1031.5 mb 0.00 in0.0 mm 0.00 in0.0 mm 0.00 in0.0 mm
06:32 AM 28.0°F-2.2°C 25.5°F-3.6°C 90% 1.1 mph NE1.8 kmh NE 3.2 mph5.1 kmh 30.46 in1031.5 mb 0.00 in0.0 mm 0.00 in0.0 mm 0.00 in0.0 mm
06:31 AM 28.0°F-2.2°C 25.5°F-3.6°C 90% 2.2 mph NE3.5 kmh NE 3.7 mph6.0 kmh 30.46 in1031.5 mb 0.00 in0.0 mm 0.00 in0.0 mm 0.00 in0.0 mm
06:30 AM 28.0°F-2.2°C 25.5°F-3.6°C 90% 1.1 mph ESE1.8 kmh ESE 3.7 mph6.0 kmh 30.46 in1031.5 mb 0.00 in0.0 mm 0.00 in0.0 mm 0.00 in0.0 mm
06:29 AM 28.0°F-2.2°C 25.5°F-3.6°C 90% 1.7 mph NE2.7 kmh NE 3.7 mph6.0 kmh 30.46 in1031.5 mb 0.00 in0.0 mm 0.00 in0.0 mm 0.00 in0.0 mm
06:28 AM 28.0°F-2.2°C 25.5°F-3.6°C 90% Calm Calm 4.2 mph6.8 kmh 30.46 in1031.5 mb 0.00 in0.0 mm 0.00 in0.0 mm 0.00 in0.0 mm
06:27 AM 27.9°F-2.3°C 25.4°F-3.7°C 90% Calm Calm 4.2 mph6.8 kmh 30.46 in1031.5 mb 0.00 in0.0 mm 0.00 in0.0 mm 0.00 in0.0 mm
06:26 AM 27.9°F-2.3°C 25.4°F-3.7°C 90% 1.7 mph NE2.7 kmh NE 4.2 mph6.8 kmh 30.46 in1031.5 mb 0.00 in0.0 mm 0.00 in0.0 mm 0.00 in0.0 mm
06:25 AM 27.9°F-2.3°C 25.4°F-3.7°C 90% 1.7 mph ENE2.7 kmh ENE 4.2 mph6.8 kmh 30.46 in1031.5 mb 0.00 in0.0 mm 0.00 in0.0 mm 0.00 in0.0 mm
06:24 AM 27.9°F-2.3°C 25.4°F-3.7°C 90% 2.2 mph ENE3.5 kmh ENE 4.2 mph6.8 kmh 30.47 in1031.8 mb 0.00 in0.0 mm 0.00 in0.0 mm 0.00 in0.0 mm
06:23 AM 27.9°F-2.3°C 25.1°F-3.8°C 89% 2.2 mph ESE3.5 kmh ESE 5.3 mph8.5 kmh 30.47 in1031.8 mb 0.00 in0.0 mm 0.00 in0.0 mm 0.00 in0.0 mm
06:22 AM 27.9°F-2.3°C 25.1°F-3.8°C 89% 3.7 mph ENE6.0 kmh ENE 5.8 mph9.3 kmh 30.47 in1031.8 mb 0.00 in0.0 mm 0.00 in0.0 mm 0.00 in0.0 mm
06:21 AM 27.9°F-2.3°C 25.1°F-3.8°C 89% 1.7 mph SE2.7 kmh SE 5.8 mph9.3 kmh 30.47 in1031.8 mb 0.00 in0.0 mm 0.00 in0.0 mm 0.00 in0.0 mm
06:20 AM 27.9°F-2.3°C 25.1°F-3.8°C 89% 3.7 mph ENE6.0 kmh ENE 5.8 mph9.3 kmh 30.47 in1031.8 mb 0.00 in0.0 mm 0.00 in0.0 mm 0.00 in0.0 mm
06:19 AM 27.9°F-2.3°C 25.1°F-3.8°C 89% 1.7 mph E2.7 kmh E 5.8 mph9.3 kmh 30.47 in1031.8 mb 0.00 in0.0 mm 0.00 in0.0 mm 0.00 in0.0 mm
06:18 AM 27.9°F-2.3°C 25.1°F-3.8°C 89% 3.2 mph ENE5.1 kmh ENE 5.8 mph9.3 kmh 30.47 in1031.8 mb 0.00 in0.0 mm 0.00 in0.0 mm 0.00 in0.0 mm
06:17 AM 27.9°F-2.3°C 25.1°F-3.8°C 89% 1.1 mph NE1.8 kmh NE 5.8 mph9.3 kmh 30.47 in1031.8 mb 0.00 in0.0 mm 0.00 in0.0 mm 0.00 in0.0 mm
06:16 AM 27.9°F-2.3°C 25.1°F-3.8°C 89% Calm Calm 5.8 mph9.3 kmh 30.47 in1031.8 mb 0.00 in0.0 mm 0.00 in0.0 mm 0.00 in0.0 mm
06:15 AM 27.9°F-2.3°C 25.1°F-3.8°C 89% 2.2 mph ESE3.5 kmh ESE 5.8 mph9.3 kmh 30.47 in1031.8 mb 0.00 in0.0 mm 0.00 in0.0 mm 0.00 in0.0 mm
06:14 AM 27.9°F-2.3°C 25.1°F-3.8°C 89% 3.7 mph E6.0 kmh E 5.8 mph9.3 kmh 30.47 in1031.8 mb 0.00 in0.0 mm 0.00 in0.0 mm 0.00 in0.0 mm
06:13 AM 27.9°F-2.3°C 25.1°F-3.8°C 89% 5.8 mph ENE9.3 kmh ENE 5.8 mph9.3 kmh 30.48 in1032.2 mb 0.00 in0.0 mm 0.00 in0.0 mm 0.00 in0.0 mm
06:12 AM 27.9°F-2.3°C 25.1°F-3.8°C 89% 1.7 mph NE2.7 kmh NE 3.7 mph6.0 kmh 30.48 in1032.2 mb 0.00 in0.0 mm 0.00 in0.0 mm 0.00 in0.0 mm
06:11 AM 27.9°F-2.3°C 25.1°F-3.8°C 89% Calm Calm 4.7 mph7.6 kmh 30.48 in1032.2 mb 0.00 in0.0 mm 0.00 in0.0 mm 0.00 in0.0 mm
06:10 AM 27.9°F-2.3°C 25.1°F-3.8°C 89% Calm Calm 4.7 mph7.6 kmh 30.48 in1032.2 mb 0.00 in0.0 mm 0.00 in0.0 mm 0.00 in0.0 mm
06:09 AM 27.9°F-2.3°C 25.1°F-3.8°C 89% 2.2 mph NNE3.5 kmh NNE 4.7 mph7.6 kmh 30.48 in1032.2 mb 0.00 in0.0 mm 0.00 in0.0 mm 0.00 in0.0 mm
06:08 AM 27.9°F-2.3°C 25.1°F-3.8°C 89% 2.7 mph NNW4.3 kmh NNW 4.7 mph7.6 kmh 30.48 in1032.2 mb 0.00 in0.0 mm 0.00 in0.0 mm 0.00 in0.0 mm
06:07 AM 27.7°F-2.4°C 24.6°F-4.1°C 88% Calm Calm 6.3 mph10.1 kmh 30.48 in1032.2 mb 0.00 in0.0 mm 0.00 in0.0 mm 0.00 in0.0 mm
06:06 AM 27.7°F-2.4°C 24.6°F-4.1°C 88% 3.7 mph NNW6.0 kmh NNW 6.3 mph10.1 kmh 30.48 in1032.2 mb 0.00 in0.0 mm 0.00 in0.0 mm 0.00 in0.0 mm
06:05 AM 27.7°F-2.4°C 24.6°F-4.1°C 88% 2.7 mph NNE4.3 kmh NNE 6.3 mph10.1 kmh 30.48 in1032.2 mb 0.00 in0.0 mm 0.00 in0.0 mm 0.00 in0.0 mm
06:04 AM 27.7°F-2.4°C 24.6°F-4.1°C 88% 2.2 mph NE3.5 kmh NE 6.3 mph10.1 kmh 30.48 in1032.2 mb 0.00 in0.0 mm 0.00 in0.0 mm 0.00 in0.0 mm
06:03 AM 27.7°F-2.4°C 24.6°F-4.1°C 88% Calm Calm 6.3 mph10.1 kmh 30.48 in1032.2 mb 0.00 in0.0 mm 0.00 in0.0 mm 0.00 in0.0 mm
06:02 AM 27.7°F-2.4°C 24.6°F-4.1°C 88% 2.7 mph N4.3 kmh N 6.3 mph10.1 kmh 30.48 in1032.2 mb 0.00 in0.0 mm 0.00 in0.0 mm 0.00 in0.0 mm
06:01 AM 27.7°F-2.4°C 24.6°F-4.1°C 88% 2.2 mph NW3.5 kmh NW 6.3 mph10.1 kmh 30.47 in1031.8 mb 0.00 in0.0 mm 0.00 in0.0 mm 0.00 in0.0 mm
06:00 AM 27.7°F-2.4°C 24.6°F-4.1°C 88% 4.7 mph WNW7.6 kmh WNW 6.3 mph10.1 kmh 30.47 in1031.8 mb 0.00 in0.0 mm 0.00 in0.0 mm 0.00 in0.0 mm
05:59 AM 27.7°F-2.4°C 24.6°F-4.1°C 88% 2.2 mph NNE3.5 kmh NNE 6.3 mph10.1 kmh 30.47 in1031.8 mb 0.00 in0.0 mm 0.00 in0.0 mm 0.00 in0.0 mm
05:58 AM 27.7°F-2.4°C 24.6°F-4.1°C 88% 3.7 mph NNE6.0 kmh NNE 6.3 mph10.1 kmh 30.47 in1031.8 mb 0.00 in0.0 mm 0.00 in0.0 mm 0.00 in0.0 mm
05:57 AM 27.7°F-2.4°C 24.6°F-4.1°C 88% 4.2 mph WNW6.8 kmh WNW 4.2 mph6.8 kmh 30.47 in1031.8 mb 0.00 in0.0 mm 0.00 in0.0 mm 0.00 in0.0 mm
05:56 AM 27.7°F-2.4°C 24.6°F-4.1°C 88% 3.7 mph NNE6.0 kmh NNE 3.7 mph6.0 kmh 30.47 in1031.8 mb 0.00 in0.0 mm 0.00 in0.0 mm 0.00 in0.0 mm
05:55 AM 27.7°F-2.4°C 24.6°F-4.1°C 88% 2.2 mph N3.5 kmh N 3.7 mph6.0 kmh 30.47 in1031.8 mb 0.00 in0.0 mm 0.00 in0.0 mm 0.00 in0.0 mm
05:54 AM 27.7°F-2.4°C 24.6°F-4.1°C 88% 2.2 mph NW3.5 kmh NW 3.7 mph6.0 kmh 30.47 in1031.8 mb 0.00 in0.0 mm 0.00 in0.0 mm 0.00 in0.0 mm
05:53 AM 27.7°F-2.4°C 24.6°F-4.1°C 88% 3.2 mph NNE5.1 kmh NNE 3.7 mph6.0 kmh 30.47 in1031.8 mb 0.00 in0.0 mm 0.00 in0.0 mm 0.00 in0.0 mm
05:52 AM 27.7°F-2.4°C 24.3°F-4.3°C 87% Calm Calm 3.7 mph6.0 kmh 30.47 in1031.8 mb 0.00 in0.0 mm 0.00 in0.0 mm 0.00 in0.0 mm
05:51 AM 27.7°F-2.4°C 24.3°F-4.3°C 87% Calm Calm 3.7 mph6.0 kmh 30.47 in1031.8 mb 0.00 in0.0 mm 0.00 in0.0 mm 0.00 in0.0 mm
05:50 AM 27.7°F-2.4°C 24.3°F-4.3°C 87% Calm Calm 3.7 mph6.0 kmh 30.47 in1031.8 mb 0.00 in0.0 mm 0.00 in0.0 mm 0.00 in0.0 mm
05:49 AM 27.5°F-2.5°C 24.1°F-4.4°C 87% 1.1 mph NNE1.8 kmh NNE 3.7 mph6.0 kmh 30.47 in1031.8 mb 0.00 in0.0 mm 0.00 in0.0 mm 0.00 in0.0 mm
05:48 AM 27.5°F-2.5°C 24.1°F-4.4°C 87% 3.7 mph NNW6.0 kmh NNW 3.7 mph6.0 kmh 30.47 in1031.8 mb 0.00 in0.0 mm 0.00 in0.0 mm 0.00 in0.0 mm
05:47 AM 27.5°F-2.5°C 24.1°F-4.4°C 87% 1.7 mph NNE2.7 kmh NNE 3.7 mph6.0 kmh 30.47 in1031.8 mb 0.00 in0.0 mm 0.00 in0.0 mm 0.00 in0.0 mm
05:46 AM 27.5°F-2.5°C 24.1°F-4.4°C 87% 2.2 mph NE3.5 kmh NE 3.7 mph6.0 kmh 30.47 in1031.8 mb 0.00 in0.0 mm 0.00 in0.0 mm 0.00 in0.0 mm
05:45 AM 27.5°F-2.5°C 24.1°F-4.4°C 87% 1.7 mph NNE2.7 kmh NNE 3.7 mph6.0 kmh 30.47 in1031.8 mb 0.00 in0.0 mm 0.00 in0.0 mm 0.00 in0.0 mm
05:44 AM 27.5°F-2.5°C 24.1°F-4.4°C 87% 1.1 mph NNE1.8 kmh NNE 3.7 mph6.0 kmh 30.47 in1031.8 mb 0.00 in0.0 mm 0.00 in0.0 mm 0.00 in0.0 mm
05:43 AM 27.5°F-2.5°C 24.1°F-4.4°C 87% 2.2 mph NNE3.5 kmh NNE 3.7 mph6.0 kmh 30.47 in1031.8 mb 0.00 in0.0 mm 0.00 in0.0 mm 0.00 in0.0 mm
05:42 AM 27.5°F-2.5°C 24.1°F-4.4°C 87% 3.2 mph NNW5.1 kmh NNW 3.7 mph6.0 kmh 30.47 in1031.8 mb 0.00 in0.0 mm 0.00 in0.0 mm 0.00 in0.0 mm
05:41 AM 27.5°F-2.5°C 23.9°F-4.5°C 86% 1.1 mph NNW1.8 kmh NNW 4.7 mph7.6 kmh 30.47 in1031.8 mb 0.00 in0.0 mm 0.00 in0.0 mm 0.00 in0.0 mm
05:40 AM 27.5°F-2.5°C 23.9°F-4.5°C 86% 2.7 mph NW4.3 kmh NW 4.7 mph7.6 kmh 30.47 in1031.8 mb 0.00 in0.0 mm 0.00 in0.0 mm 0.00 in0.0 mm
05:39 AM 27.5°F-2.5°C 23.9°F-4.5°C 86% 1.7 mph NNE2.7 kmh NNE 4.7 mph7.6 kmh 30.47 in1031.8 mb 0.00 in0.0 mm 0.00 in0.0 mm 0.00 in0.0 mm
05:38 AM 27.5°F-2.5°C 23.9°F-4.5°C 86% 2.2 mph N3.5 kmh N 4.7 mph7.6 kmh 30.47 in1031.8 mb 0.00 in0.0 mm 0.00 in0.0 mm 0.00 in0.0 mm
05:37 AM 27.5°F-2.5°C 23.9°F-4.5°C 86% 3.2 mph NNE5.1 kmh NNE 4.7 mph7.6 kmh 30.47 in1031.8 mb 0.00 in0.0 mm 0.00 in0.0 mm 0.00 in0.0 mm
05:36 AM 27.5°F-2.5°C 23.9°F-4.5°C 86% 2.7 mph N4.3 kmh N 4.7 mph7.6 kmh 30.47 in1031.8 mb 0.00 in0.0 mm 0.00 in0.0 mm 0.00 in0.0 mm
05:35 AM 27.5°F-2.5°C 23.9°F-4.5°C 86% 2.2 mph NNE3.5 kmh NNE 4.7 mph7.6 kmh 30.47 in1031.8 mb 0.00 in0.0 mm 0.00 in0.0 mm 0.00 in0.0 mm
05:34 AM 27.5°F-2.5°C 23.9°F-4.5°C 86% Calm Calm 4.7 mph7.6 kmh 30.47 in1031.8 mb 0.00 in0.0 mm 0.00 in0.0 mm 0.00 in0.0 mm
05:33 AM 27.5°F-2.5°C 23.9°F-4.5°C 86% 1.7 mph NNW2.7 kmh NNW 4.7 mph7.6 kmh 30.47 in1031.8 mb 0.00 in0.0 mm 0.00 in0.0 mm 0.00 in0.0 mm
05:32 AM 27.5°F-2.5°C 23.9°F-4.5°C 86% 2.7 mph NNW4.3 kmh NNW 4.7 mph7.6 kmh 30.47 in1031.8 mb 0.00 in0.0 mm 0.00 in0.0 mm 0.00 in0.0 mm
05:31 AM 27.5°F-2.5°C 23.9°F-4.5°C 86% 2.2 mph NW3.5 kmh NW 4.2 mph6.8 kmh 30.47 in1031.8 mb 0.00 in0.0 mm 0.00 in0.0 mm 0.00 in0.0 mm
05:30 AM 27.5°F-2.5°C 23.9°F-4.5°C 86% 2.7 mph NNW4.3 kmh NNW 4.2 mph6.8 kmh 30.47 in1031.8 mb 0.00 in0.0 mm 0.00 in0.0 mm 0.00 in0.0 mm
05:29 AM 27.5°F-2.5°C 23.9°F-4.5°C 86% 2.7 mph NNW4.3 kmh NNW 4.2 mph6.8 kmh 30.47 in1031.8 mb 0.00 in0.0 mm 0.00 in0.0 mm 0.00 in0.0 mm
05:28 AM 27.5°F-2.5°C 23.9°F-4.5°C 86% 2.7 mph W4.3 kmh W 4.2 mph6.8 kmh 30.47 in1031.8 mb 0.00 in0.0 mm 0.00 in0.0 mm 0.00 in0.0 mm
05:27 AM 27.5°F-2.5°C 23.9°F-4.5°C 86% 3.2 mph NNE5.1 kmh NNE 4.2 mph6.8 kmh 30.47 in1031.8 mb 0.00 in0.0 mm 0.00 in0.0 mm 0.00 in0.0 mm
05:26 AM 27.5°F-2.5°C 23.9°F-4.5°C 86% 3.7 mph NE6.0 kmh NE 4.7 mph7.6 kmh 30.47 in1031.8 mb 0.00 in0.0 mm 0.00 in0.0 mm 0.00 in0.0 mm
05:25 AM 27.5°F-2.5°C 23.9°F-4.5°C 86% 2.2 mph NE3.5 kmh NE 4.7 mph7.6 kmh 30.47 in1031.8 mb 0.00 in0.0 mm 0.00 in0.0 mm 0.00 in0.0 mm
05:24 AM 27.5°F-2.5°C 23.9°F-4.5°C 86% 1.7 mph NE2.7 kmh NE 4.7 mph7.6 kmh 30.47 in1031.8 mb 0.00 in0.0 mm 0.00 in0.0 mm 0.00 in0.0 mm
05:23 AM 27.5°F-2.5°C 23.9°F-4.5°C 86% 3.7 mph NNE6.0 kmh NNE 4.7 mph7.6 kmh 30.47 in1031.8 mb 0.00 in0.0 mm 0.00 in0.0 mm 0.00 in0.0 mm
05:22 AM 27.5°F-2.5°C 23.9°F-4.5°C 86% 1.7 mph E2.7 kmh E 4.7 mph7.6 kmh 30.47 in1031.8 mb 0.00 in0.0 mm 0.00 in0.0 mm 0.00 in0.0 mm
05:17 AM 27.5°F-2.5°C 23.9°F-4.5°C 86% 3.7 mph E6.0 kmh E 4.7 mph7.6 kmh 30.47 in1031.8 mb 0.00 in0.0 mm 0.00 in0.0 mm 0.00 in0.0 mm
05:16 AM 27.5°F-2.5°C 23.9°F-4.5°C 86% 4.2 mph NNE6.8 kmh NNE 4.2 mph6.8 kmh 30.47 in1031.8 mb 0.00 in0.0 mm 0.00 in0.0 mm 0.00 in0.0 mm
05:15 AM 27.5°F-2.5°C 23.9°F-4.5°C 86% 3.2 mph WNW5.1 kmh WNW 4.2 mph6.8 kmh 30.47 in1031.8 mb 0.00 in0.0 mm 0.00 in0.0 mm 0.00 in0.0 mm
05:14 AM 27.5°F-2.5°C 23.9°F-4.5°C 86% 4.2 mph NW6.8 kmh NW 4.2 mph6.8 kmh 30.47 in1031.8 mb 0.00 in0.0 mm 0.00 in0.0 mm 0.00 in0.0 mm
05:13 AM 27.5°F-2.5°C 23.9°F-4.5°C 86% 1.7 mph NNW2.7 kmh NNW 4.2 mph6.8 kmh 30.47 in1031.8 mb 0.00 in0.0 mm 0.00 in0.0 mm 0.00 in0.0 mm
05:12 AM 27.5°F-2.5°C 23.9°F-4.5°C 86% 2.7 mph NW4.3 kmh NW 4.2 mph6.8 kmh 30.47 in1031.8 mb 0.00 in0.0 mm 0.00 in0.0 mm 0.00 in0.0 mm
05:11 AM 27.5°F-2.5°C 23.9°F-4.5°C 86% 4.2 mph NW6.8 kmh NW 4.2 mph6.8 kmh 30.47 in1031.8 mb 0.00 in0.0 mm 0.00 in0.0 mm 0.00 in0.0 mm
05:10 AM 27.5°F-2.5°C 23.9°F-4.5°C 86% 3.2 mph NNE5.1 kmh NNE 3.7 mph6.0 kmh 30.47 in1031.8 mb 0.00 in0.0 mm 0.00 in0.0 mm 0.00 in0.0 mm
05:09 AM 27.5°F-2.5°C 23.9°F-4.5°C 86% 3.2 mph N5.1 kmh N 3.7 mph6.0 kmh 30.47 in1031.8 mb 0.00 in0.0 mm 0.00 in0.0 mm 0.00 in0.0 mm
05:08 AM 27.5°F-2.5°C 23.9°F-4.5°C 86% 3.2 mph NNE5.1 kmh NNE 3.7 mph6.0 kmh 30.47 in1031.8 mb 0.00 in0.0 mm 0.00 in0.0 mm 0.00 in0.0 mm
05:07 AM 27.5°F-2.5°C 23.9°F-4.5°C 86% 3.2 mph NNE5.1 kmh NNE 3.7 mph6.0 kmh 30.47 in1031.8 mb 0.00 in0.0 mm 0.00 in0.0 mm 0.00 in0.0 mm
05:06 AM 27.5°F-2.5°C 23.6°F-4.7°C 85% 2.7 mph NNW4.3 kmh NNW 3.7 mph6.0 kmh 30.47 in1031.8 mb 0.00 in0.0 mm 0.00 in0.0 mm 0.00 in0.0 mm
05:05 AM 27.5°F-2.5°C 23.6°F-4.7°C 85% 3.7 mph NNW6.0 kmh NNW 4.7 mph7.6 kmh 30.47 in1031.8 mb 0.00 in0.0 mm 0.00 in0.0 mm 0.00 in0.0 mm
05:04 AM 27.5°F-2.5°C 23.6°F-4.7°C 85% 2.2 mph NNE3.5 kmh NNE 4.7 mph7.6 kmh 30.47 in1031.8 mb 0.00 in0.0 mm 0.00 in0.0 mm 0.00 in0.0 mm
05:03 AM 27.5°F-2.5°C 23.6°F-4.7°C 85% 3.7 mph NNW6.0 kmh NNW 4.7 mph7.6 kmh 30.47 in1031.8 mb 0.00 in0.0 mm 0.00 in0.0 mm 0.00 in0.0 mm
05:02 AM 27.5°F-2.5°C 23.6°F-4.7°C 85% 2.7 mph N4.3 kmh N 5.3 mph8.5 kmh 30.47 in1031.8 mb 0.00 in0.0 mm 0.00 in0.0 mm 0.00 in0.0 mm
05:01 AM 27.5°F-2.5°C 23.6°F-4.7°C 85% 3.7 mph N6.0 kmh N 5.3 mph8.5 kmh 30.46 in1031.5 mb 0.00 in0.0 mm 0.00 in0.0 mm 0.00 in0.0 mm
05:00 AM 27.5°F-2.5°C 23.6°F-4.7°C 85% 3.2 mph N5.1 kmh N 5.3 mph8.5 kmh 30.46 in1031.5 mb 0.00 in0.0 mm 0.00 in0.0 mm 0.00 in0.0 mm
04:59 AM 27.5°F-2.5°C 23.6°F-4.7°C 85% 3.2 mph NNW5.1 kmh NNW 5.3 mph8.5 kmh 30.46 in1031.5 mb 0.00 in0.0 mm 0.00 in0.0 mm 0.00 in0.0 mm
04:58 AM 27.5°F-2.5°C 23.6°F-4.7°C 85% 2.2 mph NNW3.5 kmh NNW 5.3 mph8.5 kmh 30.46 in1031.5 mb 0.00 in0.0 mm 0.00 in0.0 mm 0.00 in0.0 mm
04:57 AM 27.5°F-2.5°C 23.6°F-4.7°C 85% 2.7 mph NNE4.3 kmh NNE 5.3 mph8.5 kmh 30.46 in1031.5 mb 0.00 in0.0 mm 0.00 in0.0 mm 0.00 in0.0 mm
04:56 AM 27.5°F-2.5°C 23.6°F-4.7°C 85% 3.2 mph NNW5.1 kmh NNW 5.3 mph8.5 kmh 30.46 in1031.5 mb 0.00 in0.0 mm 0.00 in0.0 mm 0.00 in0.0 mm
04:55 AM 27.5°F-2.5°C 23.6°F-4.7°C 85% 4.2 mph N6.8 kmh N 5.3 mph8.5 kmh 30.46 in1031.5 mb 0.00 in0.0 mm 0.00 in0.0 mm 0.00 in0.0 mm
04:54 AM 27.5°F-2.5°C 23.6°F-4.7°C 85% 2.2 mph NNW3.5 kmh NNW 5.3 mph8.5 kmh 30.46 in1031.5 mb 0.00 in0.0 mm 0.00 in0.0 mm 0.00 in0.0 mm
04:53 AM 27.5°F-2.5°C 23.6°F-4.7°C 85% 5.3 mph N8.5 kmh N 5.3 mph8.5 kmh 30.46 in1031.5 mb 0.00 in0.0 mm 0.00 in0.0 mm 0.00 in0.0 mm
04:52 AM 27.5°F-2.5°C 23.6°F-4.7°C 85% 4.2 mph NNE6.8 kmh NNE 4.7 mph7.6 kmh 30.46 in1031.5 mb 0.00 in0.0 mm 0.00 in0.0 mm 0.00 in0.0 mm
04:51 AM 27.5°F-2.5°C 23.6°F-4.7°C 85% 3.2 mph N5.1 kmh N 4.7 mph7.6 kmh 30.46 in1031.5 mb 0.00 in0.0 mm 0.00 in0.0 mm 0.00 in0.0 mm
04:50 AM 27.5°F-2.5°C 23.6°F-4.7°C 85% 4.7 mph NNE7.6 kmh NNE 4.7 mph7.6 kmh 30.46 in1031.5 mb 0.00 in0.0 mm 0.00 in0.0 mm 0.00 in0.0 mm
04:49 AM 27.7°F-2.4°C 23.8°F-4.6°C 85% 3.7 mph N6.0 kmh N 4.2 mph6.8 kmh 30.46 in1031.5 mb 0.00 in0.0 mm 0.00 in0.0 mm 0.00 in0.0 mm
04:48 AM 27.7°F-2.4°C 23.8°F-4.6°C 85% 3.7 mph NNW6.0 kmh NNW 4.2 mph6.8 kmh 30.46 in1031.5 mb 0.00 in0.0 mm 0.00 in0.0 mm 0.00 in0.0 mm
04:47 AM 27.7°F-2.4°C 23.8°F-4.6°C 85% 2.2 mph WNW3.5 kmh WNW 4.2 mph6.8 kmh 30.46 in1031.5 mb 0.00 in0.0 mm 0.00 in0.0 mm 0.00 in0.0 mm
04:46 AM 27.7°F-2.4°C 23.8°F-4.6°C 85% 1.7 mph NW2.7 kmh NW 4.2 mph6.8 kmh 30.46 in1031.5 mb 0.00 in0.0 mm 0.00 in0.0 mm 0.00 in0.0 mm
04:45 AM 27.7°F-2.4°C 23.8°F-4.6°C 85% 3.2 mph NW5.1 kmh NW 4.2 mph6.8 kmh 30.46 in1031.5 mb 0.00 in0.0 mm 0.00 in0.0 mm 0.00 in0.0 mm
04:44 AM 27.7°F-2.4°C 23.8°F-4.6°C 85% 3.2 mph NNW5.1 kmh NNW 4.7 mph7.6 kmh 30.46 in1031.5 mb 0.00 in0.0 mm 0.00 in0.0 mm 0.00 in0.0 mm
04:43 AM 27.7°F-2.4°C 23.8°F-4.6°C 85% 4.2 mph NW6.8 kmh NW 4.7 mph7.6 kmh 30.46 in1031.5 mb 0.00 in0.0 mm 0.00 in0.0 mm 0.00 in0.0 mm
04:42 AM 27.7°F-2.4°C 23.8°F-4.6°C 85% 4.2 mph NNW6.8 kmh NNW 4.7 mph7.6 kmh 30.46 in1031.5 mb 0.00 in0.0 mm 0.00 in0.0 mm 0.00 in0.0 mm
04:36 AM 27.7°F-2.4°C 23.8°F-4.6°C 85% 3.2 mph N5.1 kmh N 5.3 mph8.5 kmh 30.46 in1031.5 mb 0.00 in0.0 mm 0.00 in0.0 mm 0.00 in0.0 mm
04:35 AM 27.7°F-2.4°C 23.8°F-4.6°C 85% 2.7 mph NE4.3 kmh NE 5.3 mph8.5 kmh 30.46 in1031.5 mb 0.00 in0.0 mm 0.00 in0.0 mm 0.00 in0.0 mm
04:34 AM 27.7°F-2.4°C 23.8°F-4.6°C 85% 3.2 mph N5.1 kmh N 5.3 mph8.5 kmh 30.46 in1031.5 mb 0.00 in0.0 mm 0.00 in0.0 mm 0.00 in0.0 mm
04:33 AM 27.9°F-2.3°C 24.0°F-4.4°C 85% 4.2 mph NNW6.8 kmh NNW 5.3 mph8.5 kmh 30.46 in1031.5 mb 0.00 in0.0 mm 0.00 in0.0 mm 0.00 in0.0 mm
04:32 AM 27.9°F-2.3°C 24.0°F-4.4°C 85% 5.3 mph WNW8.5 kmh WNW 5.3 mph8.5 kmh 30.46 in1031.5 mb 0.00 in0.0 mm 0.00 in0.0 mm 0.00 in0.0 mm
04:31 AM 27.9°F-2.3°C 24.0°F-4.4°C 85% 3.7 mph W6.0 kmh W 5.3 mph8.5 kmh 30.46 in1031.5 mb 0.00 in0.0 mm 0.00 in0.0 mm 0.00 in0.0 mm
04:30 AM 27.9°F-2.3°C 24.0°F-4.4°C 85% 2.7 mph NNE4.3 kmh NNE 5.3 mph8.5 kmh 30.46 in1031.5 mb 0.00 in0.0 mm 0.00 in0.0 mm 0.00 in0.0 mm
04:29 AM 27.9°F-2.3°C 24.0°F-4.4°C 85% 5.3 mph NNW8.5 kmh NNW 5.3 mph8.5 kmh 30.46 in1031.5 mb 0.00 in0.0 mm 0.00 in0.0 mm 0.00 in0.0 mm
04:28 AM 28.0°F-2.2°C 24.1°F-4.4°C 85% 2.7 mph NNE4.3 kmh NNE 4.7 mph7.6 kmh 30.46 in1031.5 mb 0.00 in0.0 mm 0.00 in0.0 mm 0.00 in0.0 mm
04:27 AM 28.0°F-2.2°C 24.1°F-4.4°C 85% 3.2 mph NNE5.1 kmh NNE 4.7 mph7.6 kmh 30.46 in1031.5 mb 0.00 in0.0 mm 0.00 in0.0 mm 0.00 in0.0 mm
04:26 AM 28.0°F-2.2°C 24.1°F-4.4°C 85% 2.7 mph N4.3 kmh N 5.8 mph9.3 kmh 30.46 in1031.5 mb 0.00 in0.0 mm 0.00 in0.0 mm 0.00 in0.0 mm
04:25 AM 28.0°F-2.2°C 24.1°F-4.4°C 85% 2.7 mph NW4.3 kmh NW 5.8 mph9.3 kmh 30.46 in1031.5 mb 0.00 in0.0 mm 0.00 in0.0 mm 0.00 in0.0 mm
04:24 AM 28.0°F-2.2°C 24.1°F-4.4°C 85% 1.7 mph NNE2.7 kmh NNE 5.8 mph9.3 kmh 30.46 in1031.5 mb 0.00 in0.0 mm 0.00 in0.0 mm 0.00 in0.0 mm
04:23 AM 28.0°F-2.2°C 24.1°F-4.4°C 85% 3.2 mph N5.1 kmh N 5.8 mph9.3 kmh 30.46 in1031.5 mb 0.00 in0.0 mm 0.00 in0.0 mm 0.00 in0.0 mm
04:22 AM 28.0°F-2.2°C 24.1°F-4.4°C 85% 3.7 mph NNW6.0 kmh NNW 5.8 mph9.3 kmh 30.46 in1031.5 mb 0.00 in0.0 mm 0.00 in0.0 mm 0.00 in0.0 mm
04:21 AM 28.0°F-2.2°C 24.1°F-4.4°C 85% 4.7 mph NNW7.6 kmh NNW 5.8 mph9.3 kmh 30.46 in1031.5 mb 0.00 in0.0 mm 0.00 in0.0 mm 0.00 in0.0 mm
04:20 AM 28.0°F-2.2°C 24.1°F-4.4°C 85% 2.7 mph NNE4.3 kmh NNE 5.8 mph9.3 kmh 30.46 in1031.5 mb 0.00 in0.0 mm 0.00 in0.0 mm 0.00 in0.0 mm
04:19 AM 28.0°F-2.2°C 24.1°F-4.4°C 85% 4.7 mph NE7.6 kmh NE 5.8 mph9.3 kmh 30.46 in1031.5 mb 0.00 in0.0 mm 0.00 in0.0 mm 0.00 in0.0 mm
04:18 AM 28.0°F-2.2°C 24.1°F-4.4°C 85% 4.7 mph NNW7.6 kmh NNW 5.8 mph9.3 kmh 30.46 in1031.5 mb 0.00 in0.0 mm 0.00 in0.0 mm 0.00 in0.0 mm
04:17 AM 28.0°F-2.2°C 24.1°F-4.4°C 85% 2.7 mph NW4.3 kmh NW 5.8 mph9.3 kmh 30.46 in1031.5 mb 0.00 in0.0 mm 0.00 in0.0 mm 0.00 in0.0 mm
04:16 AM 28.2°F-2.1°C 24.3°F-4.3°C 85% 3.7 mph NNE6.0 kmh NNE 4.7 mph7.6 kmh 30.46 in1031.5 mb 0.00 in0.0 mm 0.00 in0.0 mm 0.00 in0.0 mm
04:15 AM 28.2°F-2.1°C 24.3°F-4.3°C 85% 3.7 mph NNW6.0 kmh NNW 4.7 mph7.6 kmh 30.46 in1031.5 mb 0.00 in0.0 mm 0.00 in0.0 mm 0.00 in0.0 mm
04:14 AM 28.2°F-2.1°C 24.3°F-4.3°C 85% 2.7 mph NNE4.3 kmh NNE 4.7 mph7.6 kmh 30.46 in1031.5 mb 0.00 in0.0 mm 0.00 in0.0 mm 0.00 in0.0 mm
04:13 AM 28.4°F-2.0°C 24.5°F-4.2°C 85% 3.2 mph N5.1 kmh N 4.2 mph6.8 kmh 30.46 in1031.5 mb 0.00 in0.0 mm 0.00 in0.0 mm 0.00 in0.0 mm
04:12 AM 28.4°F-2.0°C 24.5°F-4.2°C 85% 2.2 mph NNE3.5 kmh NNE 4.7 mph7.6 kmh 30.46 in1031.5 mb 0.00 in0.0 mm 0.00 in0.0 mm 0.00 in0.0 mm
04:11 AM 28.4°F-2.0°C 24.2°F-4.3°C 84% 2.7 mph NW4.3 kmh NW 4.7 mph7.6 kmh 30.46 in1031.5 mb 0.00 in0.0 mm 0.00 in0.0 mm 0.00 in0.0 mm
04:10 AM 28.4°F-2.0°C 24.2°F-4.3°C 84% 2.7 mph NNW4.3 kmh NNW 4.7 mph7.6 kmh 30.46 in1031.5 mb 0.00 in0.0 mm 0.00 in0.0 mm 0.00 in0.0 mm
04:09 AM 28.4°F-2.0°C 24.2°F-4.3°C 84% 3.7 mph N6.0 kmh N 4.7 mph7.6 kmh 30.46 in1031.5 mb 0.00 in0.0 mm 0.00 in0.0 mm 0.00 in0.0 mm
04:08 AM 28.6°F-1.9°C 24.4°F-4.2°C 84% 3.7 mph NW6.0 kmh NW 4.7 mph7.6 kmh 30.46 in1031.5 mb 0.00 in0.0 mm 0.00 in0.0 mm 0.00 in0.0 mm
04:07 AM 28.6°F-1.9°C 24.4°F-4.2°C 84% 2.7 mph N4.3 kmh N 4.7 mph7.6 kmh 30.46 in1031.5 mb 0.00 in0.0 mm 0.00 in0.0 mm 0.00 in0.0 mm
04:06 AM 28.6°F-1.9°C 24.4°F-4.2°C 84% 2.7 mph NNW4.3 kmh NNW 4.7 mph7.6 kmh 30.46 in1031.5 mb 0.00 in0.0 mm 0.00 in0.0 mm 0.00 in0.0 mm
04:05 AM 28.6°F-1.9°C 24.4°F-4.2°C 84% 2.7 mph NW4.3 kmh NW 4.7 mph7.6 kmh 30.46 in1031.5 mb 0.00 in0.0 mm 0.00 in0.0 mm 0.00 in0.0 mm
04:04 AM 28.8°F-1.8°C 24.6°F-4.1°C 84% 4.2 mph NNW6.8 kmh NNW 4.7 mph7.6 kmh 30.46 in1031.5 mb 0.00 in0.0 mm 0.00 in0.0 mm 0.00 in0.0 mm
04:03 AM 28.8°F-1.8°C 24.6°F-4.1°C 84% 3.2 mph NNW5.1 kmh NNW 4.7 mph7.6 kmh 30.46 in1031.5 mb 0.00 in0.0 mm 0.00 in0.0 mm 0.00 in0.0 mm
04:02 AM 28.8°F-1.8°C 24.6°F-4.1°C 84% 3.2 mph NNW5.1 kmh NNW 4.7 mph7.6 kmh 30.46 in1031.5 mb 0.00 in0.0 mm 0.00 in0.0 mm 0.00 in0.0 mm
04:01 AM 28.8°F-1.8°C 24.6°F-4.1°C 84% 1.1 mph NNW1.8 kmh NNW 4.7 mph7.6 kmh 30.46 in1031.5 mb 0.00 in0.0 mm 0.00 in0.0 mm 0.00 in0.0 mm
04:00 AM 28.8°F-1.8°C 24.6°F-4.1°C 84% Calm Calm 4.7 mph7.6 kmh 30.46 in1031.5 mb 0.00 in0.0 mm 0.00 in0.0 mm 0.00 in0.0 mm
03:59 AM 28.8°F-1.8°C 24.6°F-4.1°C 84% Calm Calm 4.7 mph7.6 kmh 30.46 in1031.5 mb 0.00 in0.0 mm 0.00 in0.0 mm 0.00 in0.0 mm
03:58 AM 28.8°F-1.8°C 24.6°F-4.1°C 84% 2.2 mph NE3.5 kmh NE 4.7 mph7.6 kmh 30.46 in1031.5 mb 0.00 in0.0 mm 0.00 in0.0 mm 0.00 in0.0 mm
03:57 AM 28.8°F-1.8°C 24.6°F-4.1°C 84% 1.1 mph NW1.8 kmh NW 4.7 mph7.6 kmh 30.46 in1031.5 mb 0.00 in0.0 mm 0.00 in0.0 mm 0.00 in0.0 mm
03:56 AM 28.8°F-1.8°C 24.6°F-4.1°C 84% 3.2 mph NW5.1 kmh NW 4.7 mph7.6 kmh 30.46 in1031.5 mb 0.00 in0.0 mm 0.00 in0.0 mm 0.00 in0.0 mm
03:55 AM 28.9°F-1.7°C 24.7°F-4.1°C 84% 3.7 mph N6.0 kmh N 4.7 mph7.6 kmh 30.46 in1031.5 mb 0.00 in0.0 mm 0.00 in0.0 mm 0.00 in0.0 mm
03:54 AM 29.1°F-1.6°C 24.9°F-3.9°C 84% 2.7 mph NW4.3 kmh NW 4.7 mph7.6 kmh 30.46 in1031.5 mb 0.00 in0.0 mm 0.00 in0.0 mm 0.00 in0.0 mm
03:53 AM 29.1°F-1.6°C 24.9°F-3.9°C 84% 2.7 mph N4.3 kmh N 4.7 mph7.6 kmh 30.46 in1031.5 mb 0.00 in0.0 mm 0.00 in0.0 mm 0.00 in0.0 mm
03:52 AM 29.3°F-1.5°C 25.1°F-3.8°C 84% 3.7 mph NNW6.0 kmh NNW 4.7 mph7.6 kmh 30.46 in1031.5 mb 0.00 in0.0 mm 0.00 in0.0 mm 0.00 in0.0 mm
03:51 AM 29.3°F-1.5°C 25.1°F-3.8°C 84% 3.7 mph N6.0 kmh N 4.2 mph6.8 kmh 30.46 in1031.5 mb 0.00 in0.0 mm 0.00 in0.0 mm 0.00 in0.0 mm
03:50 AM 29.5°F-1.4°C 25.3°F-3.7°C 84% Calm Calm 3.2 mph5.1 kmh 30.46 in1031.5 mb 0.00 in0.0 mm 0.00 in0.0 mm 0.00 in0.0 mm
03:49 AM 29.5°F-1.4°C 25.3°F-3.7°C 84% Calm Calm 3.2 mph5.1 kmh 30.46 in1031.5 mb 0.00 in0.0 mm 0.00 in0.0 mm 0.00 in0.0 mm
03:48 AM 29.7°F-1.3°C 25.5°F-3.6°C 84% 2.2 mph NNW3.5 kmh NNW 3.2 mph5.1 kmh 30.46 in1031.5 mb 0.00 in0.0 mm 0.00 in0.0 mm 0.00 in0.0 mm
03:47 AM 29.7°F-1.3°C 25.5°F-3.6°C 84% 1.7 mph NNE2.7 kmh NNE 3.2 mph5.1 kmh 30.46 in1031.5 mb 0.00 in0.0 mm 0.00 in0.0 mm 0.00 in0.0 mm
03:46 AM 29.7°F-1.3°C 25.5°F-3.6°C 84% 3.2 mph NNW5.1 kmh NNW 3.2 mph5.1 kmh 30.46 in1031.5 mb 0.00 in0.0 mm 0.00 in0.0 mm 0.00 in0.0 mm
03:45 AM 29.7°F-1.3°C 25.5°F-3.6°C 84% 2.2 mph NW3.5 kmh NW 3.2 mph5.1 kmh 30.46 in1031.5 mb 0.00 in0.0 mm 0.00 in0.0 mm 0.00 in0.0 mm
03:44 AM 29.8°F-1.2°C 25.6°F-3.6°C 84% 1.7 mph NW2.7 kmh NW 3.2 mph5.1 kmh 30.46 in1031.5 mb 0.00 in0.0 mm 0.00 in0.0 mm 0.00 in0.0 mm
03:43 AM 29.8°F-1.2°C 25.6°F-3.6°C 84% 2.7 mph NNW4.3 kmh NNW 3.2 mph5.1 kmh 30.46 in1031.5 mb 0.00 in0.0 mm 0.00 in0.0 mm 0.00 in0.0 mm
03:42 AM 30.0°F-1.1°C 25.8°F-3.4°C 84% 2.2 mph N3.5 kmh N 3.2 mph5.1 kmh 30.46 in1031.5 mb 0.00 in0.0 mm 0.00 in0.0 mm 0.00 in0.0 mm
03:41 AM 30.2°F-1.0°C 26.0°F-3.3°C 84% 2.2 mph NW3.5 kmh NW 3.2 mph5.1 kmh 30.46 in1031.5 mb 0.00 in0.0 mm 0.00 in0.0 mm 0.00 in0.0 mm
03:40 AM 30.2°F-1.0°C 26.0°F-3.3°C 84% Calm Calm 3.2 mph5.1 kmh 30.46 in1031.5 mb 0.00 in0.0 mm 0.00 in0.0 mm 0.00 in0.0 mm
03:39 AM 30.2°F-1.0°C 26.0°F-3.3°C 84% Calm Calm 3.2 mph5.1 kmh 30.46 in1031.5 mb 0.00 in0.0 mm 0.00 in0.0 mm 0.00 in0.0 mm
03:38 AM 30.2°F-1.0°C 26.0°F-3.3°C 84% 1.7 mph NNE2.7 kmh NNE 3.7 mph6.0 kmh 30.46 in1031.5 mb 0.00 in0.0 mm 0.00 in0.0 mm 0.00 in0.0 mm
03:37 AM 30.2°F-1.0°C 26.0°F-3.3°C 84% 2.2 mph NW3.5 kmh NW 3.7 mph6.0 kmh 30.46 in1031.5 mb 0.00 in0.0 mm 0.00 in0.0 mm 0.00 in0.0 mm
03:36 AM 30.4°F-0.9°C 26.2°F-3.2°C 84% 3.2 mph NNW5.1 kmh NNW 3.7 mph6.0 kmh 30.46 in1031.5 mb 0.00 in0.0 mm 0.00 in0.0 mm 0.00 in0.0 mm
03:35 AM 30.6°F-0.8°C 26.4°F-3.1°C 84% 1.7 mph WNW2.7 kmh WNW 3.7 mph6.0 kmh 30.46 in1031.5 mb 0.00 in0.0 mm 0.00 in0.0 mm 0.00 in0.0 mm
03:34 AM 30.6°F-0.8°C 26.4°F-3.1°C 84% 2.7 mph NE4.3 kmh NE 3.7 mph6.0 kmh 30.46 in1031.5 mb 0.00 in0.0 mm 0.00 in0.0 mm 0.00 in0.0 mm
03:33 AM 30.6°F-0.8°C 26.6°F-3.0°C 85% 2.2 mph NNE3.5 kmh NNE 3.7 mph6.0 kmh 30.46 in1031.5 mb 0.00 in0.0 mm 0.00 in0.0 mm 0.00 in0.0 mm
03:32 AM 30.7°F-0.7°C 26.7°F-2.9°C 85% 2.2 mph N3.5 kmh N 3.7 mph6.0 kmh 30.46 in1031.5 mb 0.00 in0.0 mm 0.00 in0.0 mm 0.00 in0.0 mm
03:31 AM 30.7°F-0.7°C 26.7°F-2.9°C 85% 1.1 mph N1.8 kmh N 3.7 mph6.0 kmh 30.46 in1031.5 mb 0.00 in0.0 mm 0.00 in0.0 mm 0.00 in0.0 mm
03:30 AM 30.7°F-0.7°C 26.7°F-2.9°C 85% 1.7 mph NNW2.7 kmh NNW 3.7 mph6.0 kmh 30.46 in1031.5 mb 0.00 in0.0 mm 0.00 in0.0 mm 0.00 in0.0 mm
03:29 AM 30.7°F-0.7°C 26.7°F-2.9°C 85% 2.7 mph NNW4.3 kmh NNW 3.7 mph6.0 kmh 30.46 in1031.5 mb 0.00 in0.0 mm 0.00 in0.0 mm 0.00 in0.0 mm
03:28 AM 30.7°F-0.7°C 26.7°F-2.9°C 85% 1.7 mph NNE2.7 kmh NNE 2.2 mph3.5 kmh 30.46 in1031.5 mb 0.00 in0.0 mm 0.00 in0.0 mm 0.00 in0.0 mm
03:27 AM 30.7°F-0.7°C 26.7°F-2.9°C 85% 1.7 mph N2.7 kmh N 2.2 mph3.5 kmh 30.46 in1031.5 mb 0.00 in0.0 mm 0.00 in0.0 mm 0.00 in0.0 mm
03:26 AM 30.9°F-0.6°C 26.9°F-2.8°C 85% 1.7 mph NNW2.7 kmh NNW 2.2 mph3.5 kmh 30.46 in1031.5 mb 0.00 in0.0 mm 0.00 in0.0 mm 0.00 in0.0 mm
03:25 AM 30.9°F-0.6°C 26.9°F-2.8°C 85% 1.7 mph NNE2.7 kmh NNE 2.2 mph3.5 kmh 30.46 in1031.5 mb 0.00 in0.0 mm 0.00 in0.0 mm 0.00 in0.0 mm
03:24 AM 30.9°F-0.6°C 26.9°F-2.8°C 85% Calm Calm 2.2 mph3.5 kmh 30.46 in1031.5 mb 0.00 in0.0 mm 0.00 in0.0 mm 0.00 in0.0 mm
03:23 AM 30.9°F-0.6°C 26.9°F-2.8°C 85% Calm Calm 2.2 mph3.5 kmh 30.46 in1031.5 mb 0.00 in0.0 mm 0.00 in0.0 mm 0.00 in0.0 mm
03:22 AM 30.9°F-0.6°C 26.9°F-2.8°C 85% Calm Calm 2.2 mph3.5 kmh 30.46 in1031.5 mb 0.00 in0.0 mm 0.00 in0.0 mm 0.00 in0.0 mm
03:21 AM 30.9°F-0.6°C 26.9°F-2.8°C 85% Calm Calm 2.2 mph3.5 kmh 30.46 in1031.5 mb 0.00 in0.0 mm 0.00 in0.0 mm 0.00 in0.0 mm
03:20 AM 30.9°F-0.6°C 26.9°F-2.8°C 85% Calm Calm 2.2 mph3.5 kmh 30.46 in1031.5 mb 0.00 in0.0 mm 0.00 in0.0 mm 0.00 in0.0 mm
03:19 AM 30.9°F-0.6°C 26.9°F-2.8°C 85% Calm Calm 2.2 mph3.5 kmh 30.46 in1031.5 mb 0.00 in0.0 mm 0.00 in0.0 mm 0.00 in0.0 mm
03:18 AM 30.9°F-0.6°C 26.9°F-2.8°C 85% 2.2 mph NNW3.5 kmh NNW 2.2 mph3.5 kmh 30.46 in1031.5 mb 0.00 in0.0 mm 0.00 in0.0 mm 0.00 in0.0 mm
03:17 AM 30.9°F-0.6°C 26.9°F-2.8°C 85% Calm Calm -- 30.46 in1031.5 mb 0.00 in0.0 mm 0.00 in0.0 mm 0.00 in0.0 mm
03:16 AM 30.9°F-0.6°C 26.9°F-2.8°C 85% Calm Calm -- 30.46 in1031.5 mb 0.00 in0.0 mm 0.00 in0.0 mm 0.00 in0.0 mm
03:15 AM 30.9°F-0.6°C 26.9°F-2.8°C 85% Calm Calm -- 30.46 in1031.5 mb 0.00 in0.0 mm 0.00 in0.0 mm 0.00 in0.0 mm
03:14 AM 30.9°F-0.6°C 26.9°F-2.8°C 85% Calm Calm -- 30.46 in1031.5 mb 0.00 in0.0 mm 0.00 in0.0 mm 0.00 in0.0 mm
03:13 AM 30.9°F-0.6°C 26.9°F-2.8°C 85% Calm Calm -- 30.45 in1031.2 mb 0.00 in0.0 mm 0.00 in0.0 mm 0.00 in0.0 mm
03:12 AM 30.9°F-0.6°C 26.9°F-2.8°C 85% Calm Calm -- 30.45 in1031.2 mb 0.00 in0.0 mm 0.00 in0.0 mm 0.00 in0.0 mm
03:11 AM 30.9°F-0.6°C 26.9°F-2.8°C 85% Calm Calm -- 30.45 in1031.2 mb 0.00 in0.0 mm 0.00 in0.0 mm 0.00 in0.0 mm
03:10 AM 30.7°F-0.7°C 26.7°F-2.9°C 85% Calm Calm 2.2 mph3.5 kmh 30.45 in1031.2 mb 0.00 in0.0 mm 0.00 in0.0 mm 0.00 in0.0 mm
03:09 AM 30.7°F-0.7°C 26.7°F-2.9°C 85% Calm Calm 2.2 mph3.5 kmh 30.45 in1031.2 mb 0.00 in0.0 mm 0.00 in0.0 mm 0.00 in0.0 mm
03:08 AM 30.7°F-0.7°C 26.7°F-2.9°C 85% Calm Calm 2.2 mph3.5 kmh 30.45 in1031.2 mb 0.00 in0.0 mm 0.00 in0.0 mm 0.00 in0.0 mm
03:07 AM 30.7°F-0.7°C 26.7°F-2.9°C 85% Calm Calm 2.2 mph3.5 kmh 30.45 in1031.2 mb 0.00 in0.0 mm 0.00 in0.0 mm 0.00 in0.0 mm
03:06 AM 30.7°F-0.7°C 26.7°F-2.9°C 85% Calm Calm 2.2 mph3.5 kmh 30.45 in1031.2 mb 0.00 in0.0 mm 0.00 in0.0 mm 0.00 in0.0 mm
03:05 AM 30.7°F-0.7°C 26.7°F-2.9°C 85% Calm Calm 2.2 mph3.5 kmh 30.45 in1031.2 mb 0.00 in0.0 mm 0.00 in0.0 mm 0.00 in0.0 mm
03:04 AM 30.7°F-0.7°C 26.7°F-2.9°C 85% Calm Calm 2.2 mph3.5 kmh 30.45 in1031.2 mb 0.00 in0.0 mm 0.00 in0.0 mm 0.00 in0.0 mm
03:03 AM 30.7°F-0.7°C 26.7°F-2.9°C 85% Calm Calm 2.2 mph3.5 kmh 30.45 in1031.2 mb 0.00 in0.0 mm 0.00 in0.0 mm 0.00 in0.0 mm
03:02 AM 30.7°F-0.7°C 26.7°F-2.9°C 85% Calm Calm 2.2 mph3.5 kmh 30.45 in1031.2 mb 0.00 in0.0 mm 0.00 in0.0 mm 0.00 in0.0 mm
03:01 AM 30.7°F-0.7°C 26.7°F-2.9°C 85% Calm Calm 2.2 mph3.5 kmh 30.45 in1031.2 mb 0.00 in0.0 mm 0.00 in0.0 mm 0.00 in0.0 mm
03:00 AM 30.7°F-0.7°C 26.7°F-2.9°C 85% Calm Calm 2.2 mph3.5 kmh 30.45 in1031.2 mb 0.00 in0.0 mm 0.00 in0.0 mm 0.00 in0.0 mm
02:59 AM 30.7°F-0.7°C 26.7°F-2.9°C 85% Calm Calm 2.2 mph3.5 kmh 30.45 in1031.2 mb 0.00 in0.0 mm 0.00 in0.0 mm 0.00 in0.0 mm
02:58 AM 30.7°F-0.7°C 26.7°F-2.9°C 85% 2.2 mph E3.5 kmh E 2.7 mph4.3 kmh 30.45 in1031.2 mb 0.00 in0.0 mm 0.00 in0.0 mm 0.00 in0.0 mm
02:57 AM 30.7°F-0.7°C 26.7°F-2.9°C 85% Calm Calm 2.7 mph4.3 kmh 30.45 in1031.2 mb 0.00 in0.0 mm 0.00 in0.0 mm 0.00 in0.0 mm
02:56 AM 30.7°F-0.7°C 26.7°F-2.9°C 85% Calm Calm 2.7 mph4.3 kmh 30.45 in1031.2 mb 0.00 in0.0 mm 0.00 in0.0 mm 0.00 in0.0 mm
02:55 AM 30.7°F-0.7°C 26.7°F-2.9°C 85% Calm Calm 2.7 mph4.3 kmh 30.45 in1031.2 mb 0.00 in0.0 mm 0.00 in0.0 mm 0.00 in0.0 mm
02:54 AM 30.7°F-0.7°C 26.4°F-3.1°C 84% Calm Calm 2.7 mph4.3 kmh 30.45 in1031.2 mb 0.00 in0.0 mm 0.00 in0.0 mm 0.00 in0.0 mm
02:53 AM 30.7°F-0.7°C 26.4°F-3.1°C 84% Calm Calm 2.7 mph4.3 kmh 30.45 in1031.2 mb 0.00 in0.0 mm 0.00 in0.0 mm 0.00 in0.0 mm
02:52 AM 30.7°F-0.7°C 26.4°F-3.1°C 84% Calm Calm 3.2 mph5.1 kmh 30.45 in1031.2 mb 0.00 in0.0 mm 0.00 in0.0 mm 0.00 in0.0 mm
02:51 AM 30.7°F-0.7°C 26.4°F-3.1°C 84% Calm Calm 3.2 mph5.1 kmh 30.45 in1031.2 mb 0.00 in0.0 mm 0.00 in0.0 mm 0.00 in0.0 mm
02:50 AM 30.7°F-0.7°C 26.4°F-3.1°C 84% 1.1 mph E1.8 kmh E 3.2 mph5.1 kmh 30.45 in1031.2 mb 0.00 in0.0 mm 0.00 in0.0 mm 0.00 in0.0 mm
02:49 AM 30.7°F-0.7°C 26.4°F-3.1°C 84% Calm Calm 3.2 mph5.1 kmh 30.45 in1031.2 mb 0.00 in0.0 mm 0.00 in0.0 mm 0.00 in0.0 mm
02:48 AM 30.7°F-0.7°C 26.4°F-3.1°C 84% Calm Calm 3.2 mph5.1 kmh 30.46 in1031.5 mb 0.00 in0.0 mm 0.00 in0.0 mm 0.00 in0.0 mm
02:47 AM 30.7°F-0.7°C 26.4°F-3.1°C 84% Calm Calm 3.2 mph5.1 kmh 30.46 in1031.5 mb 0.00 in0.0 mm 0.00 in0.0 mm 0.00 in0.0 mm
02:46 AM 30.7°F-0.7°C 26.4°F-3.1°C 84% Calm Calm 3.2 mph5.1 kmh 30.46 in1031.5 mb 0.00 in0.0 mm 0.00 in0.0 mm 0.00 in0.0 mm
02:45 AM 30.7°F-0.7°C 26.4°F-3.1°C 84% Calm Calm 3.2 mph5.1 kmh 30.46 in1031.5 mb 0.00 in0.0 mm 0.00 in0.0 mm 0.00 in0.0 mm
02:44 AM 30.7°F-0.7°C 26.4°F-3.1°C 84% Calm Calm 3.2 mph5.1 kmh 30.46 in1031.5 mb 0.00 in0.0 mm 0.00 in0.0 mm 0.00 in0.0 mm
02:43 AM 30.7°F-0.7°C 26.4°F-3.1°C 84% Calm Calm 3.2 mph5.1 kmh 30.46 in1031.5 mb 0.00 in0.0 mm 0.00 in0.0 mm 0.00 in0.0 mm
02:42 AM 30.7°F-0.7°C 26.4°F-3.1°C 84% 2.7 mph ENE4.3 kmh ENE 2.7 mph4.3 kmh 30.46 in1031.5 mb 0.00 in0.0 mm 0.00 in0.0 mm 0.00 in0.0 mm
02:41 AM 30.7°F-0.7°C 26.4°F-3.1°C 84% 1.1 mph NNE1.8 kmh NNE 2.7 mph4.3 kmh 30.46 in1031.5 mb 0.00 in0.0 mm 0.00 in0.0 mm 0.00 in0.0 mm
02:40 AM 30.7°F-0.7°C 26.4°F-3.1°C 84% Calm Calm 2.7 mph4.3 kmh 30.46 in1031.5 mb 0.00 in0.0 mm 0.00 in0.0 mm 0.00 in0.0 mm
02:39 AM 30.7°F-0.7°C 26.4°F-3.1°C 84% 2.2 mph SE3.5 kmh SE 2.7 mph4.3 kmh 30.46 in1031.5 mb 0.00 in0.0 mm 0.00 in0.0 mm 0.00 in0.0 mm
02:38 AM 30.7°F-0.7°C 26.4°F-3.1°C 84% 2.7 mph ESE4.3 kmh ESE 2.7 mph4.3 kmh 30.46 in1031.5 mb 0.00 in0.0 mm 0.00 in0.0 mm 0.00 in0.0 mm
02:37 AM 30.7°F-0.7°C 26.4°F-3.1°C 84% Calm Calm 2.7 mph4.3 kmh 30.45 in1031.2 mb 0.00 in0.0 mm 0.00 in0.0 mm 0.00 in0.0 mm
02:36 AM 30.7°F-0.7°C 26.4°F-3.1°C 84% Calm Calm 2.7 mph4.3 kmh 30.45 in1031.2 mb 0.00 in0.0 mm 0.00 in0.0 mm 0.00 in0.0 mm
02:35 AM 30.7°F-0.7°C 26.4°F-3.1°C 84% Calm Calm 2.7 mph4.3 kmh 30.45 in1031.2 mb 0.00 in0.0 mm 0.00 in0.0 mm 0.00 in0.0 mm
02:34 AM 30.7°F-0.7°C 26.4°F-3.1°C 84% Calm Calm 2.7 mph4.3 kmh 30.45 in1031.2 mb 0.00 in0.0 mm 0.00 in0.0 mm 0.00 in0.0 mm
02:33 AM 30.6°F-0.8°C 26.4°F-3.1°C 84% Calm Calm 2.7 mph4.3 kmh 30.45 in1031.2 mb 0.00 in0.0 mm 0.00 in0.0 mm 0.00 in0.0 mm
02:32 AM 30.6°F-0.8°C 26.4°F-3.1°C 84% Calm Calm 2.7 mph4.3 kmh 30.45 in1031.2 mb 0.00 in0.0 mm 0.00 in0.0 mm 0.00 in0.0 mm
02:31 AM 30.6°F-0.8°C 26.4°F-3.1°C 84% Calm Calm 2.7 mph4.3 kmh 30.45 in1031.2 mb 0.00 in0.0 mm 0.00 in0.0 mm 0.00 in0.0 mm
02:30 AM 30.6°F-0.8°C 26.4°F-3.1°C 84% 2.7 mph ENE4.3 kmh ENE 2.7 mph4.3 kmh 30.45 in1031.2 mb 0.00 in0.0 mm 0.00 in0.0 mm 0.00 in0.0 mm
02:29 AM 30.6°F-0.8°C 26.4°F-3.1°C 84% 1.7 mph NE2.7 kmh NE 2.2 mph3.5 kmh 30.45 in1031.2 mb 0.00 in0.0 mm 0.00 in0.0 mm 0.00 in0.0 mm
02:28 AM 30.6°F-0.8°C 26.4°F-3.1°C 84% Calm Calm 2.7 mph4.3 kmh 30.45 in1031.2 mb 0.00 in0.0 mm 0.00 in0.0 mm 0.00 in0.0 mm
02:27 AM 30.6°F-0.8°C 26.4°F-3.1°C 84% Calm Calm 2.7 mph4.3 kmh 30.45 in1031.2 mb 0.00 in0.0 mm 0.00 in0.0 mm 0.00 in0.0 mm
02:26 AM 30.6°F-0.8°C 26.4°F-3.1°C 84% Calm Calm 2.7 mph4.3 kmh 30.45 in1031.2 mb 0.00 in0.0 mm 0.00 in0.0 mm 0.00 in0.0 mm
02:25 AM 30.6°F-0.8°C 26.4°F-3.1°C 84% Calm Calm 2.7 mph4.3 kmh 30.44 in1030.8 mb 0.00 in0.0 mm 0.00 in0.0 mm 0.00 in0.0 mm
02:24 AM 30.6°F-0.8°C 26.4°F-3.1°C 84% 1.7 mph NE2.7 kmh NE 2.7 mph4.3 kmh 30.44 in1030.8 mb 0.00 in0.0 mm 0.00 in0.0 mm 0.00 in0.0 mm
02:23 AM 30.6°F-0.8°C 26.4°F-3.1°C 84% 2.2 mph NE3.5 kmh NE 2.7 mph4.3 kmh 30.44 in1030.8 mb 0.00 in0.0 mm 0.00 in0.0 mm 0.00 in0.0 mm
02:22 AM 30.6°F-0.8°C 26.4°F-3.1°C 84% 1.7 mph NE2.7 kmh NE 2.7 mph4.3 kmh 30.44 in1030.8 mb 0.00 in0.0 mm 0.00 in0.0 mm 0.00 in0.0 mm
02:21 AM 30.4°F-0.9°C 26.2°F-3.2°C 84% Calm Calm 2.7 mph4.3 kmh 30.44 in1030.8 mb 0.00 in0.0 mm 0.00 in0.0 mm 0.00 in0.0 mm
02:20 AM 30.4°F-0.9°C 26.2°F-3.2°C 84% Calm Calm 2.7 mph4.3 kmh 30.44 in1030.8 mb 0.00 in0.0 mm 0.00 in0.0 mm 0.00 in0.0 mm
02:19 AM 30.4°F-0.9°C 26.2°F-3.2°C 84% 1.7 mph ESE2.7 kmh ESE 2.7 mph4.3 kmh 30.44 in1030.8 mb 0.00 in0.0 mm 0.00 in0.0 mm 0.00 in0.0 mm
02:18 AM 30.4°F-0.9°C 26.2°F-3.2°C 84% Calm Calm 2.7 mph4.3 kmh 30.44 in1030.8 mb 0.00 in0.0 mm 0.00 in0.0 mm 0.00 in0.0 mm
02:17 AM 30.4°F-0.9°C 26.2°F-3.2°C 84% 2.2 mph E3.5 kmh E 2.7 mph4.3 kmh 30.44 in1030.8 mb 0.00 in0.0 mm 0.00 in0.0 mm 0.00 in0.0 mm
02:16 AM 30.4°F-0.9°C 26.2°F-3.2°C 84% Calm Calm 2.7 mph4.3 kmh 30.44 in1030.8 mb 0.00 in0.0 mm 0.00 in0.0 mm 0.00 in0.0 mm
02:15 AM 30.4°F-0.9°C 26.2°F-3.2°C 84% 1.7 mph NE2.7 kmh NE 2.7 mph4.3 kmh 30.44 in1030.8 mb 0.00 in0.0 mm 0.00 in0.0 mm 0.00 in0.0 mm
02:14 AM 30.4°F-0.9°C 26.2°F-3.2°C 84% Calm Calm 2.7 mph4.3 kmh 30.44 in1030.8 mb 0.00 in0.0 mm 0.00 in0.0 mm 0.00 in0.0 mm
02:13 AM 30.4°F-0.9°C 26.2°F-3.2°C 84% 1.1 mph NE1.8 kmh NE 2.7 mph4.3 kmh 30.44 in1030.8 mb 0.00 in0.0 mm 0.00 in0.0 mm 0.00 in0.0 mm
02:12 AM 30.4°F-0.9°C 26.2°F-3.2°C 84% 2.2 mph ENE3.5 kmh ENE 2.7 mph4.3 kmh 30.44 in1030.8 mb 0.00 in0.0 mm 0.00 in0.0 mm 0.00 in0.0 mm
02:11 AM 30.4°F-0.9°C 26.2°F-3.2°C 84% Calm Calm 2.2 mph3.5 kmh 30.44 in1030.8 mb 0.00 in0.0 mm 0.00 in0.0 mm 0.00 in0.0 mm
02:10 AM 30.4°F-0.9°C 26.2°F-3.2°C 84% Calm Calm 2.2 mph3.5 kmh 30.44 in1030.8 mb 0.00 in0.0 mm 0.00 in0.0 mm 0.00 in0.0 mm
02:09 AM 30.4°F-0.9°C 26.2°F-3.2°C 84% Calm Calm 2.2 mph3.5 kmh 30.44 in1030.8 mb 0.00 in0.0 mm 0.00 in0.0 mm 0.00 in0.0 mm
02:08 AM 30.4°F-0.9°C 26.2°F-3.2°C 84% Calm Calm 2.2 mph3.5 kmh 30.44 in1030.8 mb 0.00 in0.0 mm 0.00 in0.0 mm 0.00 in0.0 mm
02:07 AM 30.4°F-0.9°C 26.2°F-3.2°C 84% 1.7 mph NE2.7 kmh NE 2.2 mph3.5 kmh 30.44 in1030.8 mb 0.00 in0.0 mm 0.00 in0.0 mm 0.00 in0.0 mm
02:06 AM 30.4°F-0.9°C 26.2°F-3.2°C 84% 1.1 mph ESE1.8 kmh ESE 3.2 mph5.1 kmh 30.44 in1030.8 mb 0.00 in0.0 mm 0.00 in0.0 mm 0.00 in0.0 mm
02:05 AM 30.4°F-0.9°C 26.2°F-3.2°C 84% Calm Calm 3.7 mph6.0 kmh 30.44 in1030.8 mb 0.00 in0.0 mm 0.00 in0.0 mm 0.00 in0.0 mm
02:04 AM 30.4°F-0.9°C 25.9°F-3.4°C 83% 2.2 mph E3.5 kmh E 3.7 mph6.0 kmh 30.44 in1030.8 mb 0.00 in0.0 mm 0.00 in0.0 mm 0.00 in0.0 mm
02:03 AM 30.4°F-0.9°C 25.9°F-3.4°C 83% Calm Calm 3.7 mph6.0 kmh 30.44 in1030.8 mb 0.00 in0.0 mm 0.00 in0.0 mm 0.00 in0.0 mm
02:02 AM 30.4°F-0.9°C 25.9°F-3.4°C 83% Calm Calm 3.7 mph6.0 kmh 30.44 in1030.8 mb 0.00 in0.0 mm 0.00 in0.0 mm 0.00 in0.0 mm
02:01 AM 30.4°F-0.9°C 25.9°F-3.4°C 83% 2.2 mph ENE3.5 kmh ENE 3.7 mph6.0 kmh 30.44 in1030.8 mb 0.00 in0.0 mm 0.00 in0.0 mm 0.00 in0.0 mm
02:00 AM 30.4°F-0.9°C 25.9°F-3.4°C 83% 1.7 mph NE2.7 kmh NE 3.7 mph6.0 kmh 30.44 in1030.8 mb 0.00 in0.0 mm 0.00 in0.0 mm 0.00 in0.0 mm
01:59 AM 30.4°F-0.9°C 25.9°F-3.4°C 83% Calm Calm 3.7 mph6.0 kmh 30.44 in1030.8 mb 0.00 in0.0 mm 0.00 in0.0 mm 0.00 in0.0 mm
01:58 AM 30.4°F-0.9°C 25.9°F-3.4°C 83% 1.7 mph ESE2.7 kmh ESE 3.7 mph6.0 kmh 30.44 in1030.8 mb 0.00 in0.0 mm 0.00 in0.0 mm 0.00 in0.0 mm
01:57 AM 30.4°F-0.9°C 25.9°F-3.4°C 83% 2.2 mph ESE3.5 kmh ESE 3.7 mph6.0 kmh 30.44 in1030.8 mb 0.00 in0.0 mm 0.00 in0.0 mm 0.00 in0.0 mm
01:56 AM 30.4°F-0.9°C 25.9°F-3.4°C 83% 3.7 mph E6.0 kmh E 3.7 mph6.0 kmh 30.44 in1030.8 mb 0.00 in0.0 mm 0.00 in0.0 mm 0.00 in0.0 mm
01:55 AM 30.4°F-0.9°C 25.9°F-3.4°C 83% 3.2 mph ENE5.1 kmh ENE 3.7 mph6.0 kmh 30.44 in1030.8 mb 0.00 in0.0 mm 0.00 in0.0 mm 0.00 in0.0 mm
01:54 AM 30.4°F-0.9°C 25.9°F-3.4°C 83% 2.2 mph ESE3.5 kmh ESE 2.7 mph4.3 kmh 30.44 in1030.8 mb 0.00 in0.0 mm 0.00 in0.0 mm 0.00 in0.0 mm
01:53 AM 30.4°F-0.9°C 25.9°F-3.4°C 83% Calm Calm 2.7 mph4.3 kmh 30.44 in1030.8 mb 0.00 in0.0 mm 0.00 in0.0 mm 0.00 in0.0 mm
01:52 AM 30.4°F-0.9°C 25.9°F-3.4°C 83% 1.7 mph ESE2.7 kmh ESE 2.7 mph4.3 kmh 30.44 in1030.8 mb 0.00 in0.0 mm 0.00 in0.0 mm 0.00 in0.0 mm
01:51 AM 30.4°F-0.9°C 25.9°F-3.4°C 83% Calm Calm 2.7 mph4.3 kmh 30.44 in1030.8 mb 0.00 in0.0 mm 0.00 in0.0 mm 0.00 in0.0 mm
01:50 AM 30.4°F-0.9°C 25.9°F-3.4°C 83% 1.7 mph ESE2.7 kmh ESE 2.7 mph4.3 kmh 30.44 in1030.8 mb 0.00 in0.0 mm 0.00 in0.0 mm 0.00 in0.0 mm
01:49 AM 30.4°F-0.9°C 25.9°F-3.4°C 83% 1.7 mph E2.7 kmh E 2.7 mph4.3 kmh 30.44 in1030.8 mb 0.00 in0.0 mm 0.00 in0.0 mm 0.00 in0.0 mm
01:48 AM 30.4°F-0.9°C 25.9°F-3.4°C 83% 1.7 mph ENE2.7 kmh ENE 2.7 mph4.3 kmh 30.44 in1030.8 mb 0.00 in0.0 mm 0.00 in0.0 mm 0.00 in0.0 mm
01:47 AM 30.4°F-0.9°C 25.9°F-3.4°C 83% Calm Calm 3.2 mph5.1 kmh 30.44 in1030.8 mb 0.00 in0.0 mm 0.00 in0.0 mm 0.00 in0.0 mm
01:46 AM 30.4°F-0.9°C 25.9°F-3.4°C 83% 2.2 mph E3.5 kmh E 4.7 mph7.6 kmh 30.44 in1030.8 mb 0.00 in0.0 mm 0.00 in0.0 mm 0.00 in0.0 mm
01:45 AM 30.4°F-0.9°C 25.9°F-3.4°C 83% 2.2 mph ESE3.5 kmh ESE 4.7 mph7.6 kmh 30.44 in1030.8 mb 0.00 in0.0 mm 0.00 in0.0 mm 0.00 in0.0 mm
01:44 AM 30.4°F-0.9°C 25.9°F-3.4°C 83% 1.7 mph SE2.7 kmh SE 4.7 mph7.6 kmh 30.44 in1030.8 mb 0.00 in0.0 mm 0.00 in0.0 mm 0.00 in0.0 mm
01:43 AM 30.4°F-0.9°C 25.9°F-3.4°C 83% 1.1 mph ESE1.8 kmh ESE 4.7 mph7.6 kmh 30.44 in1030.8 mb 0.00 in0.0 mm 0.00 in0.0 mm 0.00 in0.0 mm
01:42 AM 30.4°F-0.9°C 25.9°F-3.4°C 83% Calm Calm 4.7 mph7.6 kmh 30.44 in1030.8 mb 0.00 in0.0 mm 0.00 in0.0 mm 0.00 in0.0 mm
01:41 AM 30.4°F-0.9°C 25.9°F-3.4°C 83% Calm Calm 4.7 mph7.6 kmh 30.44 in1030.8 mb 0.00 in0.0 mm 0.00 in0.0 mm 0.00 in0.0 mm
01:40 AM 30.4°F-0.9°C 25.9°F-3.4°C 83% 1.7 mph ESE2.7 kmh ESE 4.7 mph7.6 kmh 30.44 in1030.8 mb 0.00 in0.0 mm 0.00 in0.0 mm 0.00 in0.0 mm
01:39 AM 30.4°F-0.9°C 25.9°F-3.4°C 83% 2.7 mph E4.3 kmh E 4.7 mph7.6 kmh 30.44 in1030.8 mb 0.00 in0.0 mm 0.00 in0.0 mm 0.00 in0.0 mm
01:38 AM 30.4°F-0.9°C 25.9°F-3.4°C 83% Calm Calm 4.7 mph7.6 kmh 30.44 in1030.8 mb 0.00 in0.0 mm 0.00 in0.0 mm 0.00 in0.0 mm
01:37 AM 30.4°F-0.9°C 25.9°F-3.4°C 83% 2.2 mph E3.5 kmh E 6.8 mph10.9 kmh 30.44 in1030.8 mb 0.00 in0.0 mm 0.00 in0.0 mm 0.00 in0.0 mm
01:36 AM 30.4°F-0.9°C 25.9°F-3.4°C 83% 3.7 mph E6.0 kmh E 6.8 mph10.9 kmh 30.44 in1030.8 mb 0.00 in0.0 mm 0.00 in0.0 mm 0.00 in0.0 mm
01:35 AM 30.4°F-0.9°C 25.9°F-3.4°C 83% Calm Calm 6.8 mph10.9 kmh 30.44 in1030.8 mb 0.00 in0.0 mm 0.00 in0.0 mm 0.00 in0.0 mm
01:34 AM 30.4°F-0.9°C 25.9°F-3.4°C 83% 2.2 mph E3.5 kmh E 6.8 mph10.9 kmh 30.44 in1030.8 mb 0.00 in0.0 mm 0.00 in0.0 mm 0.00 in0.0 mm
01:33 AM 30.4°F-0.9°C 25.9°F-3.4°C 83% 2.7 mph NE4.3 kmh NE 6.8 mph10.9 kmh 30.44 in1030.8 mb 0.00 in0.0 mm 0.00 in0.0 mm 0.00 in0.0 mm
01:32 AM 30.4°F-0.9°C 25.9°F-3.4°C 83% 4.7 mph E7.6 kmh E 6.8 mph10.9 kmh 30.44 in1030.8 mb 0.00 in0.0 mm 0.00 in0.0 mm 0.00 in0.0 mm
01:31 AM 30.4°F-0.9°C 25.9°F-3.4°C 83% 3.2 mph NE5.1 kmh NE 6.8 mph10.9 kmh 30.44 in1030.8 mb 0.00 in0.0 mm 0.00 in0.0 mm 0.00 in0.0 mm
01:30 AM 30.4°F-0.9°C 25.9°F-3.4°C 83% 2.7 mph ENE4.3 kmh ENE 6.8 mph10.9 kmh 30.44 in1030.8 mb 0.00 in0.0 mm 0.00 in0.0 mm 0.00 in0.0 mm
01:29 AM 30.4°F-0.9°C 25.9°F-3.4°C 83% 3.2 mph ESE5.1 kmh ESE 6.8 mph10.9 kmh 30.44 in1030.8 mb 0.00 in0.0 mm 0.00 in0.0 mm 0.00 in0.0 mm
01:28 AM 30.4°F-0.9°C 25.9°F-3.4°C 83% 5.8 mph ENE9.3 kmh ENE 6.8 mph10.9 kmh 30.44 in1030.8 mb 0.00 in0.0 mm 0.00 in0.0 mm 0.00 in0.0 mm
01:27 AM 30.4°F-0.9°C 25.9°F-3.4°C 83% 3.2 mph NE5.1 kmh NE 4.2 mph6.8 kmh 30.44 in1030.8 mb 0.00 in0.0 mm 0.00 in0.0 mm 0.00 in0.0 mm
01:26 AM 30.4°F-0.9°C 25.9°F-3.4°C 83% Calm Calm 4.2 mph6.8 kmh 30.44 in1030.8 mb 0.00 in0.0 mm 0.00 in0.0 mm 0.00 in0.0 mm
01:25 AM 30.4°F-0.9°C 25.9°F-3.4°C 83% 2.7 mph E4.3 kmh E 4.2 mph6.8 kmh 30.44 in1030.8 mb 0.00 in0.0 mm 0.00 in0.0 mm 0.00 in0.0 mm
01:24 AM 30.4°F-0.9°C 25.9°F-3.4°C 83% 3.2 mph E5.1 kmh E 4.2 mph6.8 kmh 30.44 in1030.8 mb 0.00 in0.0 mm 0.00 in0.0 mm 0.00 in0.0 mm
01:23 AM 30.4°F-0.9°C 25.9°F-3.4°C 83% 3.2 mph ENE5.1 kmh ENE 4.2 mph6.8 kmh 30.44 in1030.8 mb 0.00 in0.0 mm 0.00 in0.0 mm 0.00 in0.0 mm
01:22 AM 30.4°F-0.9°C 25.9°F-3.4°C 83% 3.2 mph ENE5.1 kmh ENE 4.7 mph7.6 kmh 30.44 in1030.8 mb 0.00 in0.0 mm 0.00 in0.0 mm 0.00 in0.0 mm
01:21 AM 30.4°F-0.9°C 25.9°F-3.4°C 83% 1.1 mph ESE1.8 kmh ESE 4.7 mph7.6 kmh 30.44 in1030.8 mb 0.00 in0.0 mm 0.00 in0.0 mm 0.00 in0.0 mm
01:20 AM 30.4°F-0.9°C 25.9°F-3.4°C 83% 3.2 mph NE5.1 kmh NE 4.7 mph7.6 kmh 30.44 in1030.8 mb 0.00 in0.0 mm 0.00 in0.0 mm 0.00 in0.0 mm
01:19 AM 30.4°F-0.9°C 25.9°F-3.4°C 83% Calm Calm 4.7 mph7.6 kmh 30.44 in1030.8 mb 0.00 in0.0 mm 0.00 in0.0 mm 0.00 in0.0 mm
01:18 AM 30.4°F-0.9°C 25.9°F-3.4°C 83% 1.1 mph SSE1.8 kmh SSE 4.7 mph7.6 kmh 30.44 in1030.8 mb 0.00 in0.0 mm 0.00 in0.0 mm 0.00 in0.0 mm
01:17 AM 30.4°F-0.9°C 25.9°F-3.4°C 83% 1.7 mph E2.7 kmh E 4.7 mph7.6 kmh 30.44 in1030.8 mb 0.00 in0.0 mm 0.00 in0.0 mm 0.00 in0.0 mm
01:16 AM 30.4°F-0.9°C 25.9°F-3.4°C 83% 1.1 mph E1.8 kmh E 4.7 mph7.6 kmh 30.44 in1030.8 mb 0.00 in0.0 mm 0.00 in0.0 mm 0.00 in0.0 mm
01:15 AM 30.4°F-0.9°C 25.9°F-3.4°C 83% 2.7 mph ENE4.3 kmh ENE 4.7 mph7.6 kmh 30.44 in1030.8 mb 0.00 in0.0 mm 0.00 in0.0 mm 0.00 in0.0 mm
01:14 AM 30.4°F-0.9°C 25.9°F-3.4°C 83% 2.7 mph ENE4.3 kmh ENE 4.7 mph7.6 kmh 30.44 in1030.8 mb 0.00 in0.0 mm 0.00 in0.0 mm 0.00 in0.0 mm
01:13 AM 30.4°F-0.9°C 25.9°F-3.4°C 83% 4.7 mph E7.6 kmh E 4.7 mph7.6 kmh 30.44 in1030.8 mb 0.00 in0.0 mm 0.00 in0.0 mm 0.00 in0.0 mm
01:12 AM 30.4°F-0.9°C 25.9°F-3.4°C 83% 4.2 mph ESE6.8 kmh ESE 4.7 mph7.6 kmh 30.44 in1030.8 mb 0.00 in0.0 mm 0.00 in0.0 mm 0.00 in0.0 mm
01:11 AM 30.4°F-0.9°C 25.9°F-3.4°C 83% 2.2 mph ESE3.5 kmh ESE 4.7 mph7.6 kmh 30.44 in1030.8 mb 0.00 in0.0 mm 0.00 in0.0 mm 0.00 in0.0 mm
01:10 AM 30.4°F-0.9°C 25.9°F-3.4°C 83% 3.7 mph E6.0 kmh E 4.7 mph7.6 kmh 30.44 in1030.8 mb 0.00 in0.0 mm 0.00 in0.0 mm 0.00 in0.0 mm
01:09 AM 30.4°F-0.9°C 25.9°F-3.4°C 83% 4.2 mph ESE6.8 kmh ESE 4.7 mph7.6 kmh 30.44 in1030.8 mb 0.00 in0.0 mm 0.00 in0.0 mm 0.00 in0.0 mm
01:08 AM 30.4°F-0.9°C 25.9°F-3.4°C 83% 2.7 mph ESE4.3 kmh ESE 4.7 mph7.6 kmh 30.44 in1030.8 mb 0.00 in0.0 mm 0.00 in0.0 mm 0.00 in0.0 mm
01:07 AM 30.4°F-0.9°C 25.9°F-3.4°C 83% 3.2 mph NE5.1 kmh NE 4.7 mph7.6 kmh 30.44 in1030.8 mb 0.00 in0.0 mm 0.00 in0.0 mm 0.00 in0.0 mm
01:06 AM 30.6°F-0.8°C 26.1°F-3.3°C 83% 2.7 mph E4.3 kmh E 4.7 mph7.6 kmh 30.44 in1030.8 mb 0.00 in0.0 mm 0.00 in0.0 mm 0.00 in0.0 mm
01:05 AM 30.6°F-0.8°C 26.1°F-3.3°C 83% 2.2 mph NE3.5 kmh NE 4.7 mph7.6 kmh 30.44 in1030.8 mb 0.00 in0.0 mm 0.00 in0.0 mm 0.00 in0.0 mm
01:04 AM 30.6°F-0.8°C 26.1°F-3.3°C 83% 3.2 mph E5.1 kmh E 4.7 mph7.6 kmh 30.44 in1030.8 mb 0.00 in0.0 mm 0.00 in0.0 mm 0.00 in0.0 mm
01:03 AM 30.6°F-0.8°C 26.1°F-3.3°C 83% 3.7 mph E6.0 kmh E 4.7 mph7.6 kmh 30.44 in1030.8 mb 0.00 in0.0 mm 0.00 in0.0 mm 0.00 in0.0 mm
01:02 AM 30.6°F-0.8°C 26.1°F-3.3°C 83% 2.2 mph ESE3.5 kmh ESE 4.7 mph7.6 kmh 30.44 in1030.8 mb 0.00 in0.0 mm 0.00 in0.0 mm 0.00 in0.0 mm
01:01 AM 30.6°F-0.8°C 26.1°F-3.3°C 83% 3.7 mph NE6.0 kmh NE 4.2 mph6.8 kmh 30.44 in1030.8 mb 0.00 in0.0 mm 0.00 in0.0 mm 0.00 in0.0 mm
01:00 AM 30.6°F-0.8°C 26.1°F-3.3°C 83% 2.7 mph E4.3 kmh E 4.2 mph6.8 kmh 30.44 in1030.8 mb 0.00 in0.0 mm 0.00 in0.0 mm 0.00 in0.0 mm
12:59 AM 30.6°F-0.8°C 26.1°F-3.3°C 83% 2.7 mph E4.3 kmh E 4.2 mph6.8 kmh 30.44 in1030.8 mb 0.00 in0.0 mm 0.00 in0.0 mm 0.00 in0.0 mm
12:58 AM 30.6°F-0.8°C 26.1°F-3.3°C 83% 2.2 mph ESE3.5 kmh ESE 4.2 mph6.8 kmh 30.44 in1030.8 mb 0.00 in0.0 mm 0.00 in0.0 mm 0.00 in0.0 mm
12:57 AM 30.6°F-0.8°C 26.1°F-3.3°C 83% 1.1 mph E1.8 kmh E 4.2 mph6.8 kmh 30.44 in1030.8 mb 0.00 in0.0 mm 0.00 in0.0 mm 0.00 in0.0 mm
12:56 AM 30.6°F-0.8°C 26.1°F-3.3°C 83% 1.7 mph ENE2.7 kmh ENE 4.2 mph6.8 kmh 30.44 in1030.8 mb 0.00 in0.0 mm 0.00 in0.0 mm 0.00 in0.0 mm
12:55 AM 30.6°F-0.8°C 26.1°F-3.3°C 83% 3.2 mph NE5.1 kmh NE 4.2 mph6.8 kmh 30.44 in1030.8 mb 0.00 in0.0 mm 0.00 in0.0 mm 0.00 in0.0 mm
12:54 AM 30.6°F-0.8°C 26.1°F-3.3°C 83% 1.1 mph ESE1.8 kmh ESE 4.2 mph6.8 kmh 30.44 in1030.8 mb 0.00 in0.0 mm 0.00 in0.0 mm 0.00 in0.0 mm
12:53 AM 30.6°F-0.8°C 26.1°F-3.3°C 83% Calm Calm 4.2 mph6.8 kmh 30.44 in1030.8 mb 0.00 in0.0 mm 0.00 in0.0 mm 0.00 in0.0 mm
12:52 AM 30.6°F-0.8°C 26.1°F-3.3°C 83% 3.2 mph ENE5.1 kmh ENE 4.2 mph6.8 kmh 30.44 in1030.8 mb 0.00 in0.0 mm 0.00 in0.0 mm 0.00 in0.0 mm
12:51 AM 30.6°F-0.8°C 26.1°F-3.3°C 83% 2.7 mph NE4.3 kmh NE 3.7 mph6.0 kmh 30.44 in1030.8 mb 0.00 in0.0 mm 0.00 in0.0 mm 0.00 in0.0 mm
12:50 AM 30.6°F-0.8°C 26.1°F-3.3°C 83% Calm Calm 3.7 mph6.0 kmh 30.44 in1030.8 mb 0.00 in0.0 mm 0.00 in0.0 mm 0.00 in0.0 mm
12:49 AM 30.6°F-0.8°C 26.1°F-3.3°C 83% Calm Calm 3.7 mph6.0 kmh 30.44 in1030.8 mb 0.00 in0.0 mm 0.00 in0.0 mm 0.00 in0.0 mm
12:48 AM 30.6°F-0.8°C 26.1°F-3.3°C 83% Calm Calm 3.7 mph6.0 kmh 30.44 in1030.8 mb 0.00 in0.0 mm 0.00 in0.0 mm 0.00 in0.0 mm
12:47 AM 30.6°F-0.8°C 26.1°F-3.3°C 83% 1.1 mph ENE1.8 kmh ENE 3.7 mph6.0 kmh 30.44 in1030.8 mb 0.00 in0.0 mm 0.00 in0.0 mm 0.00 in0.0 mm
12:46 AM 30.6°F-0.8°C 26.1°F-3.3°C 83% 1.7 mph E2.7 kmh E 3.7 mph6.0 kmh 30.44 in1030.8 mb 0.00 in0.0 mm 0.00 in0.0 mm 0.00 in0.0 mm
12:45 AM 30.6°F-0.8°C 26.1°F-3.3°C 83% 3.7 mph N6.0 kmh N 3.7 mph6.0 kmh 30.44 in1030.8 mb 0.00 in0.0 mm 0.00 in0.0 mm 0.00 in0.0 mm
12:44 AM 30.6°F-0.8°C 26.1°F-3.3°C 83% 3.7 mph NE6.0 kmh NE 3.7 mph6.0 kmh 30.44 in1030.8 mb 0.00 in0.0 mm 0.00 in0.0 mm 0.00 in0.0 mm
12:43 AM 30.6°F-0.8°C 26.1°F-3.3°C 83% 1.1 mph E1.8 kmh E 4.2 mph6.8 kmh 30.44 in1030.8 mb 0.00 in0.0 mm 0.00 in0.0 mm 0.00 in0.0 mm
12:42 AM 30.6°F-0.8°C 26.1°F-3.3°C 83% 2.7 mph ESE4.3 kmh ESE 4.7 mph7.6 kmh 30.44 in1030.8 mb 0.00 in0.0 mm 0.00 in0.0 mm 0.00 in0.0 mm
12:41 AM 30.6°F-0.8°C 26.1°F-3.3°C 83% 2.2 mph ESE3.5 kmh ESE 4.7 mph7.6 kmh 30.44 in1030.8 mb 0.00 in0.0 mm 0.00 in0.0 mm 0.00 in0.0 mm
12:40 AM 30.6°F-0.8°C 26.1°F-3.3°C 83% 1.7 mph NE2.7 kmh NE 4.7 mph7.6 kmh 30.44 in1030.8 mb 0.00 in0.0 mm 0.00 in0.0 mm 0.00 in0.0 mm
12:39 AM 30.6°F-0.8°C 26.1°F-3.3°C 83% 2.2 mph E3.5 kmh E 4.7 mph7.6 kmh 30.44 in1030.8 mb 0.00 in0.0 mm 0.00 in0.0 mm 0.00 in0.0 mm
12:38 AM 30.6°F-0.8°C 26.1°F-3.3°C 83% Calm Calm 4.7 mph7.6 kmh 30.44 in1030.8 mb 0.00 in0.0 mm 0.00 in0.0 mm 0.00 in0.0 mm
12:37 AM 30.6°F-0.8°C 26.1°F-3.3°C 83% 3.2 mph ENE5.1 kmh ENE 4.7 mph7.6 kmh 30.45 in1031.2 mb 0.00 in0.0 mm 0.00 in0.0 mm 0.00 in0.0 mm
12:36 AM 30.6°F-0.8°C 26.1°F-3.3°C 83% 1.7 mph ENE2.7 kmh ENE 4.7 mph7.6 kmh 30.45 in1031.2 mb 0.00 in0.0 mm 0.00 in0.0 mm 0.00 in0.0 mm
12:35 AM 30.6°F-0.8°C 26.1°F-3.3°C 83% 3.7 mph E6.0 kmh E 5.8 mph9.3 kmh 30.45 in1031.2 mb 0.00 in0.0 mm 0.00 in0.0 mm 0.00 in0.0 mm
12:34 AM 30.6°F-0.8°C 26.1°F-3.3°C 83% 1.7 mph ESE2.7 kmh ESE 5.8 mph9.3 kmh 30.45 in1031.2 mb 0.00 in0.0 mm 0.00 in0.0 mm 0.00 in0.0 mm
12:33 AM 30.6°F-0.8°C 26.1°F-3.3°C 83% 3.7 mph E6.0 kmh E 5.8 mph9.3 kmh 30.45 in1031.2 mb 0.00 in0.0 mm 0.00 in0.0 mm 0.00 in0.0 mm
12:32 AM 30.6°F-0.8°C 26.1°F-3.3°C 83% 3.7 mph E6.0 kmh E 6.3 mph10.1 kmh 30.45 in1031.2 mb 0.00 in0.0 mm 0.00 in0.0 mm 0.00 in0.0 mm
12:31 AM 30.6°F-0.8°C 26.1°F-3.3°C 83% Calm Calm 6.3 mph10.1 kmh 30.45 in1031.2 mb 0.00 in0.0 mm 0.00 in0.0 mm 0.00 in0.0 mm
12:30 AM 30.6°F-0.8°C 26.1°F-3.3°C 83% 3.2 mph ENE5.1 kmh ENE 6.3 mph10.1 kmh 30.45 in1031.2 mb 0.00 in0.0 mm 0.00 in0.0 mm 0.00 in0.0 mm
12:29 AM 30.6°F-0.8°C 26.1°F-3.3°C 83% 3.2 mph ESE5.1 kmh ESE 6.3 mph10.1 kmh 30.45 in1031.2 mb 0.00 in0.0 mm 0.00 in0.0 mm 0.00 in0.0 mm
12:28 AM 30.6°F-0.8°C 26.1°F-3.3°C 83% 2.7 mph ESE4.3 kmh ESE 6.3 mph10.1 kmh 30.45 in1031.2 mb 0.00 in0.0 mm 0.00 in0.0 mm 0.00 in0.0 mm
12:27 AM 30.6°F-0.8°C 26.1°F-3.3°C 83% 2.2 mph NE3.5 kmh NE 6.3 mph10.1 kmh 30.45 in1031.2 mb 0.00 in0.0 mm 0.00 in0.0 mm 0.00 in0.0 mm
12:26 AM 30.6°F-0.8°C 26.1°F-3.3°C 83% 4.7 mph ENE7.6 kmh ENE 6.3 mph10.1 kmh 30.45 in1031.2 mb 0.00 in0.0 mm 0.00 in0.0 mm 0.00 in0.0 mm
12:25 AM 30.4°F-0.9°C 25.9°F-3.4°C 83% 4.2 mph E6.8 kmh E 6.3 mph10.1 kmh 30.44 in1030.8 mb 0.00 in0.0 mm 0.00 in0.0 mm 0.00 in0.0 mm
12:24 AM 30.4°F-0.9°C 25.9°F-3.4°C 83% 2.2 mph E3.5 kmh E 6.3 mph10.1 kmh 30.44 in1030.8 mb 0.00 in0.0 mm 0.00 in0.0 mm 0.00 in0.0 mm
12:23 AM 30.4°F-0.9°C 25.9°F-3.4°C 83% 4.7 mph ENE7.6 kmh ENE 6.3 mph10.1 kmh 30.44 in1030.8 mb 0.00 in0.0 mm 0.00 in0.0 mm 0.00 in0.0 mm
12:22 AM 30.4°F-0.9°C 25.9°F-3.4°C 83% 3.2 mph NE5.1 kmh NE 5.3 mph8.5 kmh 30.44 in1030.8 mb 0.00 in0.0 mm 0.00 in0.0 mm 0.00 in0.0 mm
12:21 AM 30.4°F-0.9°C 25.9°F-3.4°C 83% 2.7 mph E4.3 kmh E 5.3 mph8.5 kmh 30.44 in1030.8 mb 0.00 in0.0 mm 0.00 in0.0 mm 0.00 in0.0 mm
12:20 AM 30.4°F-0.9°C 25.9°F-3.4°C 83% 2.2 mph ESE3.5 kmh ESE 5.3 mph8.5 kmh 30.44 in1030.8 mb 0.00 in0.0 mm 0.00 in0.0 mm 0.00 in0.0 mm
12:19 AM 30.4°F-0.9°C 25.9°F-3.4°C 83% Calm Calm 5.8 mph9.3 kmh 30.44 in1030.8 mb 0.00 in0.0 mm 0.00 in0.0 mm 0.00 in0.0 mm
12:18 AM 30.4°F-0.9°C 25.9°F-3.4°C 83% 4.2 mph E6.8 kmh E 5.8 mph9.3 kmh 30.44 in1030.8 mb 0.00 in0.0 mm 0.00 in0.0 mm 0.00 in0.0 mm
12:17 AM 30.4°F-0.9°C 25.9°F-3.4°C 83% 3.2 mph ESE5.1 kmh ESE 5.8 mph9.3 kmh 30.44 in1030.8 mb 0.00 in0.0 mm 0.00 in0.0 mm 0.00 in0.0 mm
12:16 AM 30.4°F-0.9°C 25.9°F-3.4°C 83% 3.7 mph NNE6.0 kmh NNE 5.8 mph9.3 kmh 30.44 in1030.8 mb 0.00 in0.0 mm 0.00 in0.0 mm 0.00 in0.0 mm
12:15 AM 30.4°F-0.9°C 25.9°F-3.4°C 83% 3.2 mph E5.1 kmh E 5.8 mph9.3 kmh 30.44 in1030.8 mb 0.00 in0.0 mm 0.00 in0.0 mm 0.00 in0.0 mm
12:14 AM 30.4°F-0.9°C 25.9°F-3.4°C 83% 2.2 mph NNE3.5 kmh NNE 5.8 mph9.3 kmh 30.44 in1030.8 mb 0.00 in0.0 mm 0.00 in0.0 mm 0.00 in0.0 mm
12:13 AM 30.4°F-0.9°C 25.9°F-3.4°C 83% 4.7 mph ENE7.6 kmh ENE 5.8 mph9.3 kmh 30.44 in1030.8 mb 0.00 in0.0 mm 0.00 in0.0 mm 0.00 in0.0 mm
12:12 AM 30.4°F-0.9°C 25.9°F-3.4°C 83% 4.7 mph NE7.6 kmh NE 5.8 mph9.3 kmh 30.44 in1030.8 mb 0.00 in0.0 mm 0.00 in0.0 mm 0.00 in0.0 mm
12:11 AM 30.4°F-0.9°C 25.9°F-3.4°C 83% 2.7 mph ENE4.3 kmh ENE 5.8 mph9.3 kmh 30.44 in1030.8 mb 0.00 in0.0 mm 0.00 in0.0 mm 0.00 in0.0 mm
12:10 AM 30.4°F-0.9°C 25.9°F-3.4°C 83% 2.7 mph E4.3 kmh E 6.3 mph10.1 kmh 30.44 in1030.8 mb 0.00 in0.0 mm 0.00 in0.0 mm 0.00 in0.0 mm
12:09 AM 30.4°F-0.9°C 25.9°F-3.4°C 83% 5.8 mph ENE9.3 kmh ENE 6.3 mph10.1 kmh 30.44 in1030.8 mb 0.00 in0.0 mm 0.00 in0.0 mm 0.00 in0.0 mm
12:08 AM 30.4°F-0.9°C 25.9°F-3.4°C 83% 2.2 mph ENE3.5 kmh ENE 6.8 mph10.9 kmh 30.44 in1030.8 mb 0.00 in0.0 mm 0.00 in0.0 mm 0.00 in0.0 mm
12:07 AM 30.4°F-0.9°C 25.9°F-3.4°C 83% 3.2 mph ESE5.1 kmh ESE 6.8 mph10.9 kmh 30.44 in1030.8 mb 0.00 in0.0 mm 0.00 in0.0 mm 0.00 in0.0 mm
12:06 AM 30.4°F-0.9°C 25.9°F-3.4°C 83% 2.7 mph ESE4.3 kmh ESE 6.8 mph10.9 kmh 30.44 in1030.8 mb 0.00 in0.0 mm 0.00 in0.0 mm 0.00 in0.0 mm
12:05 AM 30.4°F-0.9°C 25.9°F-3.4°C 83% 2.7 mph ESE4.3 kmh ESE 8.9 mph14.3 kmh 30.44 in1030.8 mb 0.00 in0.0 mm 0.00 in0.0 mm 0.00 in0.0 mm
12:04 AM 30.4°F-0.9°C 25.9°F-3.4°C 83% 5.3 mph E8.5 kmh E 8.9 mph14.3 kmh 30.44 in1030.8 mb 0.00 in0.0 mm 0.00 in0.0 mm 0.00 in0.0 mm
12:03 AM 30.4°F-0.9°C 25.9°F-3.4°C 83% 5.3 mph E8.5 kmh E 8.9 mph14.3 kmh 30.44 in1030.8 mb 0.00 in0.0 mm 0.00 in0.0 mm 0.00 in0.0 mm
12:02 AM 30.4°F-0.9°C 25.9°F-3.4°C 83% 3.2 mph ESE5.1 kmh ESE 8.9 mph14.3 kmh 30.44 in1030.8 mb 0.00 in0.0 mm 0.00 in0.0 mm 0.00 in0.0 mm
12:01 AM 30.4°F-0.9°C 25.9°F-3.4°C 83% 6.3 mph ENE10.1 kmh ENE 8.9 mph14.3 kmh 30.45 in1031.2 mb 0.00 in0.0 mm 0.00 in0.0 mm 0.00 in0.0 mm
12:00 AM 30.4°F-0.9°C 25.9°F-3.4°C 83% 4.2 mph ENE6.8 kmh ENE 8.9 mph14.3 kmh 30.45 in1031.2 mb 0.00 in0.0 mm 0.00 in0.0 mm 0.00 in0.0 mm